Summary for KC4WPS2

West Of Town, West Plains, MO 65775
Join the PWSweather.com Network
View data in metric units
Latest Conditions
Updated 8:38:01 PM CST Wednesday, Nov 26, 2014
Data Currently Today's Max Today's Min Today's Average
Temperature 39.1°F3.9°C 41.9°F5.5°C 25.8°F-3.4°C 33.5°F0.8°C
Dew Point 24.3°F-4.3°C 31.4°F-0.3°C 15.3°F-9.3°C 22.9°F-5.1°C
Winds 1.0 mph SW1.6 kmh SW 7.0 mph SW11.3 kmh SW CalmCalm 1.0 mph1.6 kmh
Wind Gusts 7.0 mph11.3 kmh 13.0 mph20.9 kmh -- 3.2 mph5.1 kmh
Humidity 55% 74% 54% 65%
Pressure 29.17 in987.8 mb 29.17 in987.8 mb 28.99 in981.7 mb 29.07 in984.4 mb
Precipitation 0.00 in0.0 mm - - 4.01 in101.9 mm
Trends
 
Station Profile
West Of TownWest Plains, MO 65775

Lat: 36.746, Lon: -91.896
Elevation: 1068
Station Type: Lacrosse 2308

http://www.rogerg.net/weather

Detailed Summary for Wed, Nov 26, 2014
Hour (CST) Temperature Dew Point Humidity Winds Wind Gusts Pressure Precip Precip Rate Daily Precip Total
08:38 PM 39.1°F3.9°C 24.3°F-4.3°C 55% 1.0 mph SW1.6 kmh SW 7.0 mph11.3 kmh 29.17 in987.8 mb 0.00 in0.0 mm 0.00 in/hr0.0 mm/hr 0.11 in2.8 mm
08:36 PM 39.1°F3.9°C 24.7°F-4.1°C 56% 1.0 mph SW1.6 kmh SW 7.0 mph11.3 kmh 29.17 in987.8 mb 0.00 in0.0 mm 0.00 in/hr0.0 mm/hr 0.11 in2.8 mm
08:34 PM 39.1°F3.9°C 24.3°F-4.3°C 55% 7.0 mph SW11.3 kmh SW 7.0 mph11.3 kmh 29.16 in987.5 mb 0.00 in0.0 mm 0.00 in/hr0.0 mm/hr 0.11 in2.8 mm
08:32 PM 39.2°F4.0°C 24.8°F-4.0°C 56% 3.0 mph SSE4.8 kmh SSE 4.0 mph6.4 kmh 29.16 in987.5 mb 0.00 in0.0 mm 0.00 in/hr0.0 mm/hr 0.11 in2.8 mm
08:30 PM 39.3°F4.1°C 24.9°F-3.9°C 56% 2.0 mph NE3.2 kmh NE 7.0 mph11.3 kmh 29.16 in987.5 mb 0.00 in0.0 mm 0.00 in/hr0.0 mm/hr 0.11 in2.8 mm
08:28 PM 39.3°F4.1°C 24.5°F-4.2°C 55% 1.0 mph NE1.6 kmh NE 7.0 mph11.3 kmh 29.16 in987.5 mb 0.00 in0.0 mm 0.00 in/hr0.0 mm/hr 0.11 in2.8 mm
08:26 PM 39.4°F4.1°C 24.6°F-4.1°C 55% 1.0 mph NE1.6 kmh NE 7.0 mph11.3 kmh 29.16 in987.5 mb 0.00 in0.0 mm 0.00 in/hr0.0 mm/hr 0.11 in2.8 mm
08:24 PM 39.4°F4.1°C 24.6°F-4.1°C 55% 2.0 mph NE3.2 kmh NE 7.0 mph11.3 kmh 29.16 in987.5 mb 0.00 in0.0 mm 0.00 in/hr0.0 mm/hr 0.11 in2.8 mm
08:22 PM 39.5°F4.2°C 24.7°F-4.1°C 55% 3.0 mph ENE4.8 kmh ENE 7.0 mph11.3 kmh 29.16 in987.5 mb 0.00 in0.0 mm 0.00 in/hr0.0 mm/hr 0.11 in2.8 mm
08:20 PM 39.5°F4.2°C 24.7°F-4.1°C 55% 2.0 mph SSW3.2 kmh SSW 7.0 mph11.3 kmh 29.16 in987.5 mb 0.00 in0.0 mm 0.00 in/hr0.0 mm/hr 0.11 in2.8 mm
08:18 PM 39.5°F4.2°C 24.7°F-4.1°C 55% 1.0 mph SSW1.6 kmh SSW 7.0 mph11.3 kmh 29.16 in987.5 mb 0.00 in0.0 mm 0.00 in/hr0.0 mm/hr 0.11 in2.8 mm
08:16 PM 39.6°F4.2°C 24.8°F-4.0°C 55% 1.0 mph SSW1.6 kmh SSW 7.0 mph11.3 kmh 29.16 in987.5 mb 0.00 in0.0 mm 0.00 in/hr0.0 mm/hr 0.11 in2.8 mm
08:14 PM 39.6°F4.2°C 24.8°F-4.0°C 55% 5.0 mph SSW8.0 kmh SSW 7.0 mph11.3 kmh 29.16 in987.5 mb 0.00 in0.0 mm 0.00 in/hr0.0 mm/hr 0.11 in2.8 mm
08:12 PM 39.7°F4.3°C 24.4°F-4.2°C 54% 2.0 mph SSW3.2 kmh SSW 7.0 mph11.3 kmh 29.16 in987.5 mb 0.00 in0.0 mm 0.00 in/hr0.0 mm/hr 0.11 in2.8 mm
08:10 PM 39.7°F4.3°C 24.4°F-4.2°C 54% 2.0 mph S3.2 kmh S 7.0 mph11.3 kmh 29.16 in987.5 mb 0.00 in0.0 mm 0.00 in/hr0.0 mm/hr 0.11 in2.8 mm
08:08 PM 39.8°F4.3°C 24.5°F-4.2°C 54% 1.0 mph S1.6 kmh S 7.0 mph11.3 kmh 29.16 in987.5 mb 0.00 in0.0 mm 0.00 in/hr0.0 mm/hr 0.11 in2.8 mm
08:06 PM 39.8°F4.3°C 24.5°F-4.2°C 54% 2.0 mph S3.2 kmh S 7.0 mph11.3 kmh 29.16 in987.5 mb 0.00 in0.0 mm 0.00 in/hr0.0 mm/hr 0.11 in2.8 mm
08:04 PM 39.9°F4.4°C 24.6°F-4.1°C 54% 4.0 mph NE6.4 kmh NE 7.0 mph11.3 kmh 29.15 in987.1 mb 0.00 in0.0 mm 0.00 in/hr0.0 mm/hr 0.11 in2.8 mm
08:02 PM 39.9°F4.4°C 24.6°F-4.1°C 54% 3.0 mph SSW4.8 kmh SSW 7.0 mph11.3 kmh 29.15 in987.1 mb 0.00 in0.0 mm 0.00 in/hr0.0 mm/hr 0.11 in2.8 mm
08:00 PM 39.9°F4.4°C 24.6°F-4.1°C 54% 5.0 mph SW8.0 kmh SW 11.0 mph17.7 kmh 29.15 in987.1 mb 0.00 in0.0 mm 0.00 in/hr0.0 mm/hr 0.11 in2.8 mm
07:58 PM 40.0°F4.4°C 24.7°F-4.1°C 54% 5.0 mph SW8.0 kmh SW 11.0 mph17.7 kmh 29.16 in987.5 mb 0.00 in0.0 mm 0.00 in/hr0.0 mm/hr 0.11 in2.8 mm
07:56 PM 40.0°F4.4°C 25.2°F-3.8°C 55% 6.0 mph NNE9.7 kmh NNE 11.0 mph17.7 kmh 29.15 in987.1 mb 0.00 in0.0 mm 0.00 in/hr0.0 mm/hr 0.11 in2.8 mm
07:54 PM 40.1°F4.5°C 25.3°F-3.7°C 55% 4.0 mph NE6.4 kmh NE 9.0 mph14.5 kmh 29.15 in987.1 mb 0.00 in0.0 mm 0.00 in/hr0.0 mm/hr 0.11 in2.8 mm
07:52 PM 40.1°F4.5°C 25.3°F-3.7°C 55% 3.0 mph NE4.8 kmh NE 9.0 mph14.5 kmh 29.15 in987.1 mb 0.00 in0.0 mm 0.00 in/hr0.0 mm/hr 0.11 in2.8 mm
07:50 PM 40.1°F4.5°C 25.3°F-3.7°C 55% 3.0 mph SSW4.8 kmh SSW 9.0 mph14.5 kmh 29.15 in987.1 mb 0.00 in0.0 mm 0.00 in/hr0.0 mm/hr 0.11 in2.8 mm
07:48 PM 40.1°F4.5°C 24.8°F-4.0°C 54% 4.0 mph N6.4 kmh N 9.0 mph14.5 kmh 29.15 in987.1 mb 0.00 in0.0 mm 0.00 in/hr0.0 mm/hr 0.11 in2.8 mm
07:46 PM 40.1°F4.5°C 25.3°F-3.7°C 55% 3.0 mph NE4.8 kmh NE 9.0 mph14.5 kmh 29.15 in987.1 mb 0.00 in0.0 mm 0.00 in/hr0.0 mm/hr 0.11 in2.8 mm
07:44 PM 40.1°F4.5°C 25.3°F-3.7°C 55% 7.0 mph SW11.3 kmh SW 9.0 mph14.5 kmh 29.15 in987.1 mb 0.00 in0.0 mm 0.00 in/hr0.0 mm/hr 0.11 in2.8 mm
07:42 PM 40.1°F4.5°C 25.3°F-3.7°C 55% 3.0 mph SSW4.8 kmh SSW 9.0 mph14.5 kmh 29.15 in987.1 mb 0.00 in0.0 mm 0.00 in/hr0.0 mm/hr 0.11 in2.8 mm
07:40 PM 40.2°F4.6°C 25.3°F-3.7°C 55% 3.0 mph NNE4.8 kmh NNE 8.0 mph12.9 kmh 29.15 in987.1 mb 0.00 in0.0 mm 0.00 in/hr0.0 mm/hr 0.11 in2.8 mm
07:38 PM 40.2°F4.6°C 25.3°F-3.7°C 55% 3.0 mph SW4.8 kmh SW 8.0 mph12.9 kmh 29.15 in987.1 mb 0.00 in0.0 mm 0.00 in/hr0.0 mm/hr 0.11 in2.8 mm
07:36 PM 40.2°F4.6°C 25.8°F-3.4°C 56% 1.0 mph NE1.6 kmh NE 4.0 mph6.4 kmh 29.15 in987.1 mb 0.00 in0.0 mm 0.00 in/hr0.0 mm/hr 0.11 in2.8 mm
07:34 PM 40.2°F4.6°C 25.3°F-3.7°C 55% Calm Calm 2.0 mph3.2 kmh 29.14 in986.8 mb 0.00 in0.0 mm 0.00 in/hr0.0 mm/hr 0.11 in2.8 mm
07:32 PM 40.2°F4.6°C 25.3°F-3.7°C 55% 1.0 mph E1.6 kmh E 2.0 mph3.2 kmh 29.14 in986.8 mb 0.00 in0.0 mm 0.00 in/hr0.0 mm/hr 0.11 in2.8 mm
07:30 PM 40.1°F4.5°C 25.3°F-3.7°C 55% 1.0 mph E1.6 kmh E 1.0 mph1.6 kmh 29.14 in986.8 mb 0.00 in0.0 mm 0.00 in/hr0.0 mm/hr 0.11 in2.8 mm
07:28 PM 40.1°F4.5°C 25.3°F-3.7°C 55% 2.0 mph E3.2 kmh E 5.0 mph8.0 kmh 29.14 in986.8 mb 0.00 in0.0 mm 0.00 in/hr0.0 mm/hr 0.11 in2.8 mm
07:26 PM 40.1°F4.5°C 25.7°F-3.5°C 56% 2.0 mph E3.2 kmh E 5.0 mph8.0 kmh 29.14 in986.8 mb 0.00 in0.0 mm 0.00 in/hr0.0 mm/hr 0.11 in2.8 mm
07:24 PM 40.1°F4.5°C 25.3°F-3.7°C 55% Calm Calm 5.0 mph8.0 kmh 29.14 in986.8 mb 0.00 in0.0 mm 0.00 in/hr0.0 mm/hr 0.11 in2.8 mm
07:22 PM 40.1°F4.5°C 25.3°F-3.7°C 55% 4.0 mph S6.4 kmh S 5.0 mph8.0 kmh 29.13 in986.5 mb 0.00 in0.0 mm 0.00 in/hr0.0 mm/hr 0.11 in2.8 mm
07:20 PM 40.1°F4.5°C 25.7°F-3.5°C 56% 1.0 mph S1.6 kmh S 5.0 mph8.0 kmh 29.13 in986.5 mb 0.00 in0.0 mm 0.00 in/hr0.0 mm/hr 0.11 in2.8 mm
07:18 PM 40.1°F4.5°C 25.3°F-3.7°C 55% 2.0 mph S3.2 kmh S 5.0 mph8.0 kmh 29.13 in986.5 mb 0.00 in0.0 mm 0.00 in/hr0.0 mm/hr 0.11 in2.8 mm
07:16 PM 40.1°F4.5°C 25.7°F-3.5°C 56% 3.0 mph S4.8 kmh S 5.0 mph8.0 kmh 29.13 in986.5 mb 0.00 in0.0 mm 0.00 in/hr0.0 mm/hr 0.11 in2.8 mm
07:14 PM 40.1°F4.5°C 25.7°F-3.5°C 56% Calm Calm 4.0 mph6.4 kmh 29.13 in986.5 mb 0.00 in0.0 mm 0.00 in/hr0.0 mm/hr 0.11 in2.8 mm
07:12 PM 40.1°F4.5°C 25.7°F-3.5°C 56% 1.0 mph S1.6 kmh S 4.0 mph6.4 kmh 29.13 in986.5 mb 0.00 in0.0 mm 0.00 in/hr0.0 mm/hr 0.11 in2.8 mm
07:10 PM 40.0°F4.4°C 25.6°F-3.6°C 56% 2.0 mph S3.2 kmh S 4.0 mph6.4 kmh 29.13 in986.5 mb 0.00 in0.0 mm 0.00 in/hr0.0 mm/hr 0.11 in2.8 mm
07:08 PM 40.0°F4.4°C 25.6°F-3.6°C 56% Calm Calm 2.0 mph3.2 kmh 29.13 in986.5 mb 0.00 in0.0 mm 0.00 in/hr0.0 mm/hr 0.11 in2.8 mm
07:06 PM 40.0°F4.4°C 25.6°F-3.6°C 56% Calm Calm 2.0 mph3.2 kmh 29.12 in986.1 mb 0.00 in0.0 mm 0.00 in/hr0.0 mm/hr 0.11 in2.8 mm
07:04 PM 40.0°F4.4°C 25.6°F-3.6°C 56% 2.0 mph S3.2 kmh S 2.0 mph3.2 kmh 29.12 in986.1 mb 0.00 in0.0 mm 0.00 in/hr0.0 mm/hr 0.11 in2.8 mm
07:02 PM 40.0°F4.4°C 26.0°F-3.3°C 57% Calm Calm 1.0 mph1.6 kmh 29.13 in986.5 mb 0.00 in0.0 mm 0.00 in/hr0.0 mm/hr 0.11 in2.8 mm
07:00 PM 40.0°F4.4°C 25.6°F-3.6°C 56% 1.0 mph S1.6 kmh S 1.0 mph1.6 kmh 29.12 in986.1 mb 0.00 in0.0 mm 0.00 in/hr0.0 mm/hr 0.11 in2.8 mm
06:58 PM 40.0°F4.4°C 26.0°F-3.3°C 57% Calm Calm 5.0 mph8.0 kmh 29.12 in986.1 mb 0.00 in0.0 mm 0.00 in/hr0.0 mm/hr 0.11 in2.8 mm
06:56 PM 40.0°F4.4°C 25.6°F-3.6°C 56% Calm Calm 5.0 mph8.0 kmh 29.12 in986.1 mb 0.00 in0.0 mm 0.00 in/hr0.0 mm/hr 0.11 in2.8 mm
06:54 PM 40.0°F4.4°C 25.6°F-3.6°C 56% 3.0 mph S4.8 kmh S 5.0 mph8.0 kmh 29.12 in986.1 mb 0.00 in0.0 mm 0.00 in/hr0.0 mm/hr 0.11 in2.8 mm
06:52 PM 40.0°F4.4°C 25.6°F-3.6°C 56% 1.0 mph S1.6 kmh S 5.0 mph8.0 kmh 29.12 in986.1 mb 0.00 in0.0 mm 0.00 in/hr0.0 mm/hr 0.11 in2.8 mm
06:50 PM 40.0°F4.4°C 25.6°F-3.6°C 56% 1.0 mph S1.6 kmh S 5.0 mph8.0 kmh 29.12 in986.1 mb 0.00 in0.0 mm 0.00 in/hr0.0 mm/hr 0.11 in2.8 mm
06:48 PM 40.0°F4.4°C 25.6°F-3.6°C 56% Calm Calm 5.0 mph8.0 kmh 29.12 in986.1 mb 0.00 in0.0 mm 0.00 in/hr0.0 mm/hr 0.11 in2.8 mm
06:46 PM 40.0°F4.4°C 25.6°F-3.6°C 56% 3.0 mph S4.8 kmh S 5.0 mph8.0 kmh 29.12 in986.1 mb 0.00 in0.0 mm 0.00 in/hr0.0 mm/hr 0.11 in2.8 mm
06:44 PM 40.0°F4.4°C 25.6°F-3.6°C 56% 1.0 mph S1.6 kmh S 4.0 mph6.4 kmh 29.12 in986.1 mb 0.00 in0.0 mm 0.00 in/hr0.0 mm/hr 0.11 in2.8 mm
06:42 PM 40.0°F4.4°C 25.6°F-3.6°C 56% Calm Calm 4.0 mph6.4 kmh 29.12 in986.1 mb 0.00 in0.0 mm 0.00 in/hr0.0 mm/hr 0.11 in2.8 mm
06:40 PM 40.0°F4.4°C 26.0°F-3.3°C 57% 2.0 mph S3.2 kmh S 4.0 mph6.4 kmh 29.13 in986.5 mb 0.00 in0.0 mm 0.00 in/hr0.0 mm/hr 0.11 in2.8 mm
06:38 PM 40.0°F4.4°C 25.6°F-3.6°C 56% 1.0 mph S1.6 kmh S 4.0 mph6.4 kmh 29.12 in986.1 mb 0.00 in0.0 mm 0.00 in/hr0.0 mm/hr 0.11 in2.8 mm
06:36 PM 40.0°F4.4°C 26.0°F-3.3°C 57% 2.0 mph S3.2 kmh S 4.0 mph6.4 kmh 29.12 in986.1 mb 0.00 in0.0 mm 0.00 in/hr0.0 mm/hr 0.11 in2.8 mm
06:34 PM 40.0°F4.4°C 26.0°F-3.3°C 57% Calm Calm 4.0 mph6.4 kmh 29.12 in986.1 mb 0.00 in0.0 mm 0.00 in/hr0.0 mm/hr 0.11 in2.8 mm
06:32 PM 40.0°F4.4°C 26.0°F-3.3°C 57% Calm Calm 4.0 mph6.4 kmh 29.12 in986.1 mb 0.00 in0.0 mm 0.00 in/hr0.0 mm/hr 0.11 in2.8 mm
06:30 PM 40.0°F4.4°C 26.0°F-3.3°C 57% 1.0 mph S1.6 kmh S 2.0 mph3.2 kmh 29.12 in986.1 mb 0.00 in0.0 mm 0.00 in/hr0.0 mm/hr 0.11 in2.8 mm
06:28 PM 40.0°F4.4°C 25.6°F-3.6°C 56% 1.0 mph S1.6 kmh S 7.0 mph11.3 kmh 29.12 in986.1 mb 0.00 in0.0 mm 0.00 in/hr0.0 mm/hr 0.11 in2.8 mm
06:26 PM 40.0°F4.4°C 26.0°F-3.3°C 57% 3.0 mph S4.8 kmh S 7.0 mph11.3 kmh 29.12 in986.1 mb 0.00 in0.0 mm 0.00 in/hr0.0 mm/hr 0.11 in2.8 mm
06:24 PM 40.0°F4.4°C 26.0°F-3.3°C 57% 2.0 mph S3.2 kmh S 7.0 mph11.3 kmh 29.12 in986.1 mb 0.00 in0.0 mm 0.00 in/hr0.0 mm/hr 0.11 in2.8 mm
06:22 PM 40.0°F4.4°C 26.0°F-3.3°C 57% Calm Calm 7.0 mph11.3 kmh 29.12 in986.1 mb 0.00 in0.0 mm 0.00 in/hr0.0 mm/hr 0.11 in2.8 mm
06:20 PM 40.0°F4.4°C 26.0°F-3.3°C 57% Calm Calm 7.0 mph11.3 kmh 29.11 in985.8 mb 0.00 in0.0 mm 0.00 in/hr0.0 mm/hr 0.11 in2.8 mm
06:18 PM 40.0°F4.4°C 25.6°F-3.6°C 56% 3.0 mph SSW4.8 kmh SSW 7.0 mph11.3 kmh 29.11 in985.8 mb 0.00 in0.0 mm 0.00 in/hr0.0 mm/hr 0.11 in2.8 mm
06:16 PM 40.0°F4.4°C 26.0°F-3.3°C 57% 2.0 mph SSW3.2 kmh SSW 7.0 mph11.3 kmh 29.11 in985.8 mb 0.00 in0.0 mm 0.00 in/hr0.0 mm/hr 0.11 in2.8 mm
06:14 PM 40.0°F4.4°C 25.6°F-3.6°C 56% 3.0 mph SSW4.8 kmh SSW 7.0 mph11.3 kmh 29.11 in985.8 mb 0.00 in0.0 mm 0.00 in/hr0.0 mm/hr 0.11 in2.8 mm
06:12 PM 39.9°F4.4°C 25.9°F-3.4°C 57% 2.0 mph NNE3.2 kmh NNE 5.0 mph8.0 kmh 29.11 in985.8 mb 0.00 in0.0 mm 0.00 in/hr0.0 mm/hr 0.11 in2.8 mm
06:10 PM 40.0°F4.4°C 26.0°F-3.3°C 57% 2.0 mph SW3.2 kmh SW 5.0 mph8.0 kmh 29.11 in985.8 mb 0.00 in0.0 mm 0.00 in/hr0.0 mm/hr 0.11 in2.8 mm
06:08 PM 40.0°F4.4°C 26.0°F-3.3°C 57% 4.0 mph SW6.4 kmh SW 5.0 mph8.0 kmh 29.11 in985.8 mb 0.00 in0.0 mm 0.00 in/hr0.0 mm/hr 0.11 in2.8 mm
06:06 PM 40.0°F4.4°C 26.0°F-3.3°C 57% 1.0 mph SW1.6 kmh SW 5.0 mph8.0 kmh 29.12 in986.1 mb 0.00 in0.0 mm 0.00 in/hr0.0 mm/hr 0.11 in2.8 mm
06:04 PM 40.0°F4.4°C 26.0°F-3.3°C 57% 4.0 mph SW6.4 kmh SW 5.0 mph8.0 kmh 29.11 in985.8 mb 0.00 in0.0 mm 0.00 in/hr0.0 mm/hr 0.11 in2.8 mm
06:02 PM 40.0°F4.4°C 26.0°F-3.3°C 57% 4.0 mph SW6.4 kmh SW 5.0 mph8.0 kmh 29.11 in985.8 mb 0.00 in0.0 mm 0.00 in/hr0.0 mm/hr 0.11 in2.8 mm
06:00 PM 40.0°F4.4°C 26.0°F-3.3°C 57% 1.0 mph SW1.6 kmh SW 2.0 mph3.2 kmh 29.11 in985.8 mb 0.00 in0.0 mm 0.00 in/hr0.0 mm/hr 0.11 in2.8 mm
05:58 PM 40.1°F4.5°C 26.1°F-3.3°C 57% 4.0 mph SW6.4 kmh SW 6.0 mph9.7 kmh 29.11 in985.8 mb 0.01 in0.3 mm 0.00 in/hr0.0 mm/hr 0.11 in2.8 mm
05:56 PM 40.1°F4.5°C 26.1°F-3.3°C 57% 3.0 mph SW4.8 kmh SW 6.0 mph9.7 kmh 29.11 in985.8 mb 0.01 in0.3 mm 0.00 in/hr0.0 mm/hr 0.11 in2.8 mm
05:54 PM 40.1°F4.5°C 26.5°F-3.1°C 58% 1.0 mph N1.6 kmh N 6.0 mph9.7 kmh 29.11 in985.8 mb 0.01 in0.3 mm 0.00 in/hr0.0 mm/hr 0.11 in2.8 mm
05:52 PM 40.1°F4.5°C 26.1°F-3.3°C 57% 1.0 mph SSW1.6 kmh SSW 6.0 mph9.7 kmh 29.11 in985.8 mb 0.01 in0.3 mm 0.00 in/hr0.0 mm/hr 0.11 in2.8 mm
05:50 PM 40.1°F4.5°C 26.5°F-3.1°C 58% 4.0 mph SW6.4 kmh SW 6.0 mph9.7 kmh 29.11 in985.8 mb 0.01 in0.3 mm 0.00 in/hr0.0 mm/hr 0.11 in2.8 mm
05:48 PM 40.2°F4.6°C 26.6°F-3.0°C 58% 2.0 mph SW3.2 kmh SW 6.0 mph9.7 kmh 29.11 in985.8 mb 0.01 in0.3 mm 0.00 in/hr0.0 mm/hr 0.11 in2.8 mm
05:46 PM 40.2°F4.6°C 26.6°F-3.0°C 58% 4.0 mph SW6.4 kmh SW 6.0 mph9.7 kmh 29.11 in985.8 mb 0.01 in0.3 mm 0.00 in/hr0.0 mm/hr 0.11 in2.8 mm
05:44 PM 40.2°F4.6°C 26.6°F-3.0°C 58% 2.0 mph SW3.2 kmh SW 6.0 mph9.7 kmh 29.11 in985.8 mb 0.01 in0.3 mm 0.00 in/hr0.0 mm/hr 0.11 in2.8 mm
05:42 PM 40.2°F4.6°C 26.6°F-3.0°C 58% 4.0 mph W6.4 kmh W 6.0 mph9.7 kmh 29.11 in985.8 mb 0.01 in0.3 mm 0.00 in/hr0.0 mm/hr 0.11 in2.8 mm
05:40 PM 40.1°F4.5°C 26.5°F-3.1°C 58% Calm Calm 6.0 mph9.7 kmh 29.11 in985.8 mb 0.01 in0.3 mm 0.00 in/hr0.0 mm/hr 0.11 in2.8 mm
05:38 PM 40.2°F4.6°C 27.0°F-2.8°C 59% 2.0 mph S3.2 kmh S 6.0 mph9.7 kmh 29.11 in985.8 mb 0.01 in0.3 mm 0.00 in/hr0.0 mm/hr 0.11 in2.8 mm
05:36 PM 40.1°F4.5°C 27.4°F-2.6°C 60% 4.0 mph S6.4 kmh S 6.0 mph9.7 kmh 29.10 in985.4 mb 0.01 in0.3 mm 0.00 in/hr0.0 mm/hr 0.11 in2.8 mm
05:34 PM 40.1°F4.5°C 27.4°F-2.6°C 60% 1.0 mph SE1.6 kmh SE 5.0 mph8.0 kmh 29.11 in985.8 mb 0.01 in0.3 mm 0.00 in/hr0.0 mm/hr 0.11 in2.8 mm
05:32 PM 40.1°F4.5°C 27.4°F-2.6°C 60% 3.0 mph SE4.8 kmh SE 5.0 mph8.0 kmh 29.10 in985.4 mb 0.01 in0.3 mm 0.00 in/hr0.0 mm/hr 0.11 in2.8 mm
05:30 PM 40.1°F4.5°C 27.8°F-2.3°C 61% Calm Calm 6.0 mph9.7 kmh 29.11 in985.8 mb 0.01 in0.3 mm 0.00 in/hr0.0 mm/hr 0.11 in2.8 mm
05:28 PM 40.1°F4.5°C 27.4°F-2.6°C 60% Calm Calm 6.0 mph9.7 kmh 29.11 in985.8 mb 0.01 in0.3 mm 0.00 in/hr0.0 mm/hr 0.11 in2.8 mm
05:26 PM 40.1°F4.5°C 27.8°F-2.3°C 61% 3.0 mph E4.8 kmh E 6.0 mph9.7 kmh 29.11 in985.8 mb 0.01 in0.3 mm 0.00 in/hr0.0 mm/hr 0.11 in2.8 mm
05:24 PM 40.0°F4.4°C 27.7°F-2.4°C 61% Calm Calm 6.0 mph9.7 kmh 29.11 in985.8 mb 0.01 in0.3 mm 0.00 in/hr0.0 mm/hr 0.11 in2.8 mm
05:22 PM 40.0°F4.4°C 27.3°F-2.6°C 60% 1.0 mph E1.6 kmh E 6.0 mph9.7 kmh 29.10 in985.4 mb 0.01 in0.3 mm 0.00 in/hr0.0 mm/hr 0.11 in2.8 mm
05:20 PM 40.0°F4.4°C 27.7°F-2.4°C 61% 2.0 mph E3.2 kmh E 6.0 mph9.7 kmh 29.10 in985.4 mb 0.01 in0.3 mm 0.00 in/hr0.0 mm/hr 0.11 in2.8 mm
05:18 PM 40.0°F4.4°C 27.7°F-2.4°C 61% 1.0 mph E1.6 kmh E 6.0 mph9.7 kmh 29.10 in985.4 mb 0.01 in0.3 mm 0.00 in/hr0.0 mm/hr 0.11 in2.8 mm
05:16 PM 40.0°F4.4°C 28.1°F-2.2°C 62% 1.0 mph E1.6 kmh E 6.0 mph9.7 kmh 29.10 in985.4 mb 0.01 in0.3 mm 0.00 in/hr0.0 mm/hr 0.11 in2.8 mm
05:14 PM 39.9°F4.4°C 28.0°F-2.2°C 62% 1.0 mph ENE1.6 kmh ENE 6.0 mph9.7 kmh 29.10 in985.4 mb 0.01 in0.3 mm 0.00 in/hr0.0 mm/hr 0.11 in2.8 mm
05:12 PM 39.9°F4.4°C 27.6°F-2.4°C 61% Calm Calm 6.0 mph9.7 kmh 29.10 in985.4 mb 0.01 in0.3 mm 0.00 in/hr0.0 mm/hr 0.11 in2.8 mm
05:10 PM 39.9°F4.4°C 28.0°F-2.2°C 62% Calm Calm 6.0 mph9.7 kmh 29.10 in985.4 mb 0.01 in0.3 mm 0.00 in/hr0.0 mm/hr 0.11 in2.8 mm
05:08 PM 39.9°F4.4°C 28.0°F-2.2°C 62% Calm Calm 6.0 mph9.7 kmh 29.10 in985.4 mb 0.01 in0.3 mm 0.00 in/hr0.0 mm/hr 0.11 in2.8 mm
05:06 PM 40.0°F4.4°C 28.4°F-2.0°C 63% 1.0 mph SSW1.6 kmh SSW 6.0 mph9.7 kmh 29.10 in985.4 mb 0.01 in0.3 mm 0.00 in/hr0.0 mm/hr 0.11 in2.8 mm
05:04 PM 40.0°F4.4°C 28.4°F-2.0°C 63% 1.0 mph SW1.6 kmh SW 2.0 mph3.2 kmh 29.10 in985.4 mb 0.01 in0.3 mm 0.00 in/hr0.0 mm/hr 0.11 in2.8 mm
05:02 PM 40.0°F4.4°C 28.8°F-1.8°C 64% Calm Calm 2.0 mph3.2 kmh 29.10 in985.4 mb 0.01 in0.3 mm 0.00 in/hr0.0 mm/hr 0.11 in2.8 mm
05:00 PM 40.0°F4.4°C 28.8°F-1.8°C 64% Calm Calm -- 29.10 in985.4 mb 0.01 in0.3 mm 0.00 in/hr0.0 mm/hr 0.11 in2.8 mm
04:58 PM 40.0°F4.4°C 28.4°F-2.0°C 63% Calm Calm 5.0 mph8.0 kmh 29.09 in985.1 mb 0.02 in0.5 mm 0.00 in/hr0.0 mm/hr 0.11 in2.8 mm
04:56 PM 40.0°F4.4°C 28.8°F-1.8°C 64% Calm Calm 5.0 mph8.0 kmh 29.10 in985.4 mb 0.02 in0.5 mm 0.00 in/hr0.0 mm/hr 0.11 in2.8 mm
04:54 PM 40.0°F4.4°C 28.4°F-2.0°C 63% Calm Calm 5.0 mph8.0 kmh 29.10 in985.4 mb 0.02 in0.5 mm 0.00 in/hr0.0 mm/hr 0.11 in2.8 mm
04:52 PM 40.0°F4.4°C 28.4°F-2.0°C 63% Calm Calm 5.0 mph8.0 kmh 29.10 in985.4 mb 0.02 in0.5 mm 0.00 in/hr0.0 mm/hr 0.11 in2.8 mm
04:50 PM 40.0°F4.4°C 28.8°F-1.8°C 64% Calm Calm 5.0 mph8.0 kmh 29.10 in985.4 mb 0.02 in0.5 mm 0.00 in/hr0.0 mm/hr 0.11 in2.8 mm
04:48 PM 40.0°F4.4°C 28.8°F-1.8°C 64% Calm Calm 5.0 mph8.0 kmh 29.09 in985.1 mb 0.02 in0.5 mm 0.00 in/hr0.0 mm/hr 0.11 in2.8 mm
04:46 PM 40.0°F4.4°C 28.8°F-1.8°C 64% Calm Calm 5.0 mph8.0 kmh 29.09 in985.1 mb 0.02 in0.5 mm 0.00 in/hr0.0 mm/hr 0.11 in2.8 mm
04:44 PM 40.0°F4.4°C 28.4°F-2.0°C 63% Calm Calm 5.0 mph8.0 kmh 29.09 in985.1 mb 0.02 in0.5 mm 0.30 in/hr7.6 mm/hr 0.11 in2.8 mm
04:42 PM 40.0°F4.4°C 28.8°F-1.8°C 64% Calm Calm 5.0 mph8.0 kmh 29.09 in985.1 mb 0.01 in0.3 mm 0.00 in/hr0.0 mm/hr 0.10 in2.5 mm
04:40 PM 40.1°F4.5°C 28.5°F-1.9°C 63% Calm Calm 5.0 mph8.0 kmh 29.09 in985.1 mb 0.01 in0.3 mm 0.00 in/hr0.0 mm/hr 0.10 in2.5 mm
04:38 PM 40.1°F4.5°C 28.5°F-1.9°C 63% 1.0 mph SW1.6 kmh SW 5.0 mph8.0 kmh 29.09 in985.1 mb 0.01 in0.3 mm 0.00 in/hr0.0 mm/hr 0.10 in2.5 mm
04:36 PM 40.1°F4.5°C 28.9°F-1.7°C 64% 1.0 mph SW1.6 kmh SW 5.0 mph8.0 kmh 29.09 in985.1 mb 0.01 in0.3 mm 0.00 in/hr0.0 mm/hr 0.10 in2.5 mm
04:34 PM 40.2°F4.6°C 29.0°F-1.7°C 64% Calm Calm 5.0 mph8.0 kmh 29.09 in985.1 mb 0.01 in0.3 mm 0.00 in/hr0.0 mm/hr 0.10 in2.5 mm
04:32 PM 40.2°F4.6°C 28.6°F-1.9°C 63% 1.0 mph SW1.6 kmh SW 5.0 mph8.0 kmh 29.09 in985.1 mb 0.01 in0.3 mm 0.00 in/hr0.0 mm/hr 0.10 in2.5 mm
04:30 PM 40.2°F4.6°C 28.6°F-1.9°C 63% 2.0 mph WSW3.2 kmh WSW 6.0 mph9.7 kmh 29.09 in985.1 mb 0.01 in0.3 mm 0.00 in/hr0.0 mm/hr 0.10 in2.5 mm
04:28 PM 40.3°F4.6°C 29.1°F-1.6°C 64% Calm Calm 6.0 mph9.7 kmh 29.08 in984.8 mb 0.01 in0.3 mm 0.00 in/hr0.0 mm/hr 0.10 in2.5 mm
04:26 PM 40.3°F4.6°C 29.1°F-1.6°C 64% Calm Calm 6.0 mph9.7 kmh 29.09 in985.1 mb 0.01 in0.3 mm 0.00 in/hr0.0 mm/hr 0.10 in2.5 mm
04:24 PM 40.3°F4.6°C 29.1°F-1.6°C 64% Calm Calm 6.0 mph9.7 kmh 29.08 in984.8 mb 0.01 in0.3 mm 0.00 in/hr0.0 mm/hr 0.10 in2.5 mm
04:22 PM 40.3°F4.6°C 29.1°F-1.6°C 64% Calm Calm 6.0 mph9.7 kmh 29.08 in984.8 mb 0.01 in0.3 mm 0.00 in/hr0.0 mm/hr 0.10 in2.5 mm
04:20 PM 40.3°F4.6°C 29.1°F-1.6°C 64% 1.0 mph WSW1.6 kmh WSW 6.0 mph9.7 kmh 29.08 in984.8 mb 0.01 in0.3 mm 0.00 in/hr0.0 mm/hr 0.10 in2.5 mm
04:18 PM 40.3°F4.6°C 29.1°F-1.6°C 64% 3.0 mph WSW4.8 kmh WSW 6.0 mph9.7 kmh 29.08 in984.8 mb 0.01 in0.3 mm 0.00 in/hr0.0 mm/hr 0.10 in2.5 mm
04:16 PM 40.4°F4.7°C 29.2°F-1.6°C 64% Calm Calm 6.0 mph9.7 kmh 29.08 in984.8 mb 0.01 in0.3 mm 0.00 in/hr0.0 mm/hr 0.10 in2.5 mm
04:14 PM 40.5°F4.7°C 29.7°F-1.3°C 65% 1.0 mph WSW1.6 kmh WSW 6.0 mph9.7 kmh 29.08 in984.8 mb 0.01 in0.3 mm 0.00 in/hr0.0 mm/hr 0.10 in2.5 mm
04:12 PM 40.5°F4.7°C 29.7°F-1.3°C 65% 2.0 mph WSW3.2 kmh WSW 6.0 mph9.7 kmh 29.08 in984.8 mb 0.01 in0.3 mm 0.00 in/hr0.0 mm/hr 0.10 in2.5 mm
04:10 PM 40.5°F4.7°C 29.3°F-1.5°C 64% Calm Calm 6.0 mph9.7 kmh 29.08 in984.8 mb 0.01 in0.3 mm 0.00 in/hr0.0 mm/hr 0.10 in2.5 mm
04:08 PM 40.6°F4.8°C 29.8°F-1.2°C 65% 4.0 mph ENE6.4 kmh ENE 6.0 mph9.7 kmh 29.08 in984.8 mb 0.01 in0.3 mm 0.00 in/hr0.0 mm/hr 0.10 in2.5 mm
04:06 PM 40.6°F4.8°C 29.4°F-1.4°C 64% 1.0 mph ENE1.6 kmh ENE 6.0 mph9.7 kmh 29.08 in984.8 mb 0.01 in0.3 mm 0.00 in/hr0.0 mm/hr 0.10 in2.5 mm
04:04 PM 40.7°F4.8°C 29.5°F-1.4°C 64% Calm Calm 6.0 mph9.7 kmh 29.07 in984.4 mb 0.01 in0.3 mm 0.00 in/hr0.0 mm/hr 0.10 in2.5 mm
04:02 PM 40.8°F4.9°C 29.6°F-1.3°C 64% 1.0 mph NE1.6 kmh NE 5.0 mph8.0 kmh 29.07 in984.4 mb 0.01 in0.3 mm 0.00 in/hr0.0 mm/hr 0.10 in2.5 mm
04:00 PM 40.9°F4.9°C 29.7°F-1.3°C 64% 1.0 mph SSW1.6 kmh SSW 3.0 mph4.8 kmh 29.07 in984.4 mb 0.01 in0.3 mm 0.00 in/hr0.0 mm/hr 0.10 in2.5 mm
03:58 PM 41.2°F5.1°C 30.0°F-1.1°C 64% 5.0 mph NNE8.0 kmh NNE 11.0 mph17.7 kmh 29.07 in984.4 mb 0.01 in0.3 mm 0.00 in/hr0.0 mm/hr 0.10 in2.5 mm
03:56 PM 41.4°F5.2°C 29.8°F-1.2°C 63% 4.0 mph S6.4 kmh S 11.0 mph17.7 kmh 29.07 in984.4 mb 0.01 in0.3 mm 0.00 in/hr0.0 mm/hr 0.10 in2.5 mm
03:54 PM 41.6°F5.3°C 30.0°F-1.1°C 63% 1.0 mph WSW1.6 kmh WSW 11.0 mph17.7 kmh 29.07 in984.4 mb 0.01 in0.3 mm 0.00 in/hr0.0 mm/hr 0.10 in2.5 mm
03:52 PM 41.8°F5.4°C 29.8°F-1.2°C 62% 2.0 mph N3.2 kmh N 11.0 mph17.7 kmh 29.07 in984.4 mb 0.01 in0.3 mm 0.30 in/hr7.6 mm/hr 0.10 in2.5 mm
03:50 PM 41.9°F5.5°C 29.0°F-1.7°C 60% 2.0 mph NNE3.2 kmh NNE 11.0 mph17.7 kmh 29.07 in984.4 mb 0.00 in0.0 mm 0.00 in/hr0.0 mm/hr 0.09 in2.3 mm
03:48 PM 41.9°F5.5°C 29.0°F-1.7°C 60% 3.0 mph SSW4.8 kmh SSW 11.0 mph17.7 kmh 29.06 in984.1 mb 0.00 in0.0 mm 0.00 in/hr0.0 mm/hr 0.09 in2.3 mm
03:46 PM 41.9°F5.5°C 29.0°F-1.7°C 60% 4.0 mph SSW6.4 kmh SSW 11.0 mph17.7 kmh 29.06 in984.1 mb 0.00 in0.0 mm 0.00 in/hr0.0 mm/hr 0.09 in2.3 mm
03:44 PM 41.8°F5.4°C 29.0°F-1.7°C 60% 5.0 mph SSW8.0 kmh SSW 11.0 mph17.7 kmh 29.06 in984.1 mb 0.00 in0.0 mm 0.00 in/hr0.0 mm/hr 0.09 in2.3 mm
03:42 PM 41.7°F5.4°C 29.3°F-1.5°C 61% 4.0 mph S6.4 kmh S 11.0 mph17.7 kmh 29.06 in984.1 mb 0.00 in0.0 mm 0.00 in/hr0.0 mm/hr 0.09 in2.3 mm
03:40 PM 41.6°F5.3°C 28.8°F-1.8°C 60% 2.0 mph SW3.2 kmh SW 11.0 mph17.7 kmh 29.06 in984.1 mb 0.00 in0.0 mm 0.00 in/hr0.0 mm/hr 0.09 in2.3 mm
03:38 PM 41.5°F5.3°C 28.7°F-1.8°C 60% 2.0 mph SSW3.2 kmh SSW 11.0 mph17.7 kmh 29.06 in984.1 mb 0.00 in0.0 mm 0.00 in/hr0.0 mm/hr 0.09 in2.3 mm
03:36 PM 41.5°F5.3°C 28.7°F-1.8°C 60% 6.0 mph SW9.7 kmh SW 10.0 mph16.1 kmh 29.06 in984.1 mb 0.00 in0.0 mm 0.00 in/hr0.0 mm/hr 0.09 in2.3 mm
03:34 PM 41.4°F5.2°C 28.6°F-1.9°C 60% 3.0 mph SW4.8 kmh SW 10.0 mph16.1 kmh 29.05 in983.7 mb 0.00 in0.0 mm 0.00 in/hr0.0 mm/hr 0.09 in2.3 mm
03:32 PM 41.4°F5.2°C 28.6°F-1.9°C 60% 6.0 mph SW9.7 kmh SW 10.0 mph16.1 kmh 29.06 in984.1 mb 0.00 in0.0 mm 0.00 in/hr0.0 mm/hr 0.09 in2.3 mm
03:30 PM 41.3°F5.2°C 28.1°F-2.2°C 59% 2.0 mph S3.2 kmh S 13.0 mph20.9 kmh 29.06 in984.1 mb 0.00 in0.0 mm 0.00 in/hr0.0 mm/hr 0.09 in2.3 mm
03:28 PM 41.3°F5.2°C 28.9°F-1.7°C 61% 7.0 mph SSW11.3 kmh SSW 11.0 mph17.7 kmh 29.05 in983.7 mb 0.00 in0.0 mm 0.00 in/hr0.0 mm/hr 0.09 in2.3 mm
03:26 PM 41.3°F5.2°C 29.3°F-1.5°C 62% 3.0 mph SSW4.8 kmh SSW 11.0 mph17.7 kmh 29.05 in983.7 mb 0.00 in0.0 mm 0.00 in/hr0.0 mm/hr 0.09 in2.3 mm
03:24 PM 41.2°F5.1°C 28.8°F-1.8°C 61% 5.0 mph SSW8.0 kmh SSW 11.0 mph17.7 kmh 29.05 in983.7 mb 0.00 in0.0 mm 0.00 in/hr0.0 mm/hr 0.09 in2.3 mm
03:22 PM 41.2°F5.1°C 28.8°F-1.8°C 61% 4.0 mph SW6.4 kmh SW 11.0 mph17.7 kmh 29.05 in983.7 mb 0.00 in0.0 mm 0.00 in/hr0.0 mm/hr 0.09 in2.3 mm
03:20 PM 41.2°F5.1°C 28.8°F-1.8°C 61% 5.0 mph SSW8.0 kmh SSW 11.0 mph17.7 kmh 29.06 in984.1 mb 0.00 in0.0 mm 0.00 in/hr0.0 mm/hr 0.09 in2.3 mm
03:18 PM 41.1°F5.1°C 28.7°F-1.8°C 61% 6.0 mph SSW9.7 kmh SSW 11.0 mph17.7 kmh 29.06 in984.1 mb 0.00 in0.0 mm 0.00 in/hr0.0 mm/hr 0.09 in2.3 mm
03:16 PM 41.1°F5.1°C 28.7°F-1.8°C 61% 3.0 mph SW4.8 kmh SW 11.0 mph17.7 kmh 29.06 in984.1 mb 0.00 in0.0 mm 0.00 in/hr0.0 mm/hr 0.09 in2.3 mm
03:14 PM 41.1°F5.1°C 28.7°F-1.8°C 61% 6.0 mph S9.7 kmh S 11.0 mph17.7 kmh 29.05 in983.7 mb 0.00 in0.0 mm 0.00 in/hr0.0 mm/hr 0.09 in2.3 mm
03:12 PM 41.1°F5.1°C 28.7°F-1.8°C 61% 3.0 mph SSW4.8 kmh SSW 11.0 mph17.7 kmh 29.05 in983.7 mb 0.00 in0.0 mm 0.00 in/hr0.0 mm/hr 0.09 in2.3 mm
03:10 PM 41.1°F5.1°C 28.7°F-1.8°C 61% 3.0 mph SSW4.8 kmh SSW 11.0 mph17.7 kmh 29.05 in983.7 mb 0.00 in0.0 mm 0.00 in/hr0.0 mm/hr 0.09 in2.3 mm
03:08 PM 41.1°F5.1°C 28.7°F-1.8°C 61% 4.0 mph SSW6.4 kmh SSW 11.0 mph17.7 kmh 29.05 in983.7 mb 0.00 in0.0 mm 0.00 in/hr0.0 mm/hr 0.09 in2.3 mm
03:06 PM 41.1°F5.1°C 29.1°F-1.6°C 62% 5.0 mph SW8.0 kmh SW 11.0 mph17.7 kmh 29.05 in983.7 mb 0.00 in0.0 mm 0.00 in/hr0.0 mm/hr 0.09 in2.3 mm
03:04 PM 41.1°F5.1°C 29.1°F-1.6°C 62% 3.0 mph S4.8 kmh S 11.0 mph17.7 kmh 29.05 in983.7 mb 0.00 in0.0 mm 0.00 in/hr0.0 mm/hr 0.09 in2.3 mm
03:02 PM 41.0°F5.0°C 29.8°F-1.2°C 64% 3.0 mph SSW4.8 kmh SSW 8.0 mph12.9 kmh 29.05 in983.7 mb 0.00 in0.0 mm 0.00 in/hr0.0 mm/hr 0.09 in2.3 mm
03:00 PM 41.0°F5.0°C 29.8°F-1.2°C 64% 5.0 mph ENE8.0 kmh ENE 5.0 mph8.0 kmh 29.05 in983.7 mb 0.00 in0.0 mm 0.00 in/hr0.0 mm/hr 0.09 in2.3 mm
02:58 PM 41.0°F5.0°C 29.8°F-1.2°C 64% 1.0 mph S1.6 kmh S 10.0 mph16.1 kmh 29.04 in983.4 mb 0.00 in0.0 mm 0.00 in/hr0.0 mm/hr 0.09 in2.3 mm
02:56 PM 41.0°F5.0°C 30.2°F-1.0°C 65% 2.0 mph SW3.2 kmh SW 9.0 mph14.5 kmh 29.05 in983.7 mb 0.00 in0.0 mm 0.00 in/hr0.0 mm/hr 0.09 in2.3 mm
02:54 PM 41.0°F5.0°C 30.2°F-1.0°C 65% 4.0 mph SW6.4 kmh SW 8.0 mph12.9 kmh 29.05 in983.7 mb 0.00 in0.0 mm 0.00 in/hr0.0 mm/hr 0.09 in2.3 mm
02:52 PM 41.0°F5.0°C 30.2°F-1.0°C 65% 2.0 mph SW3.2 kmh SW 8.0 mph12.9 kmh 29.04 in983.4 mb 0.00 in0.0 mm 0.00 in/hr0.0 mm/hr 0.09 in2.3 mm
02:50 PM 41.0°F5.0°C 30.2°F-1.0°C 65% 3.0 mph W4.8 kmh W 8.0 mph12.9 kmh 29.04 in983.4 mb 0.00 in0.0 mm 0.00 in/hr0.0 mm/hr 0.09 in2.3 mm
02:48 PM 41.0°F5.0°C 30.2°F-1.0°C 65% 2.0 mph NNW3.2 kmh NNW 8.0 mph12.9 kmh 29.04 in983.4 mb 0.00 in0.0 mm 0.00 in/hr0.0 mm/hr 0.09 in2.3 mm
02:46 PM 41.0°F5.0°C 30.2°F-1.0°C 65% 5.0 mph N8.0 kmh N 8.0 mph12.9 kmh 29.04 in983.4 mb 0.00 in0.0 mm 0.00 in/hr0.0 mm/hr 0.09 in2.3 mm
02:44 PM 41.1°F5.1°C 30.3°F-0.9°C 65% 1.0 mph NE1.6 kmh NE 8.0 mph12.9 kmh 29.04 in983.4 mb 0.00 in0.0 mm 0.00 in/hr0.0 mm/hr 0.09 in2.3 mm
02:42 PM 41.2°F5.1°C 30.3°F-0.9°C 65% 1.0 mph SSW1.6 kmh SSW 8.0 mph12.9 kmh 29.04 in983.4 mb 0.00 in0.0 mm 0.00 in/hr0.0 mm/hr 0.09 in2.3 mm
02:40 PM 41.2°F5.1°C 30.0°F-1.1°C 64% 2.0 mph SSW3.2 kmh SSW 8.0 mph12.9 kmh 29.03 in983.1 mb 0.00 in0.0 mm 0.00 in/hr0.0 mm/hr 0.09 in2.3 mm
02:38 PM 41.4°F5.2°C 30.2°F-1.0°C 64% 3.0 mph S4.8 kmh S 8.0 mph12.9 kmh 29.04 in983.4 mb 0.00 in0.0 mm 0.00 in/hr0.0 mm/hr 0.09 in2.3 mm
02:36 PM 41.5°F5.3°C 29.9°F-1.2°C 63% 3.0 mph NNE4.8 kmh NNE 8.0 mph12.9 kmh 29.04 in983.4 mb 0.00 in0.0 mm 0.00 in/hr0.0 mm/hr 0.09 in2.3 mm
02:34 PM 41.6°F5.3°C 29.6°F-1.3°C 62% 3.0 mph SSW4.8 kmh SSW 6.0 mph9.7 kmh 29.03 in983.1 mb 0.00 in0.0 mm 0.00 in/hr0.0 mm/hr 0.09 in2.3 mm
02:32 PM 41.6°F5.3°C 29.6°F-1.3°C 62% 2.0 mph N3.2 kmh N 5.0 mph8.0 kmh 29.03 in983.1 mb 0.00 in0.0 mm 0.00 in/hr0.0 mm/hr 0.09 in2.3 mm
02:30 PM 41.6°F5.3°C 29.6°F-1.3°C 62% 2.0 mph N3.2 kmh N 7.0 mph11.3 kmh 29.03 in983.1 mb 0.01 in0.3 mm 0.00 in/hr0.0 mm/hr 0.09 in2.3 mm
02:28 PM 41.6°F5.3°C 29.6°F-1.3°C 62% 3.0 mph SW4.8 kmh SW 7.0 mph11.3 kmh 29.02 in982.7 mb 0.01 in0.3 mm 0.00 in/hr0.0 mm/hr 0.09 in2.3 mm
02:26 PM 41.6°F5.3°C 29.6°F-1.3°C 62% 2.0 mph N3.2 kmh N 7.0 mph11.3 kmh 29.02 in982.7 mb 0.01 in0.3 mm 0.00 in/hr0.0 mm/hr 0.09 in2.3 mm
02:24 PM 41.6°F5.3°C 29.6°F-1.3°C 62% 3.0 mph SW4.8 kmh SW 7.0 mph11.3 kmh 29.03 in983.1 mb 0.01 in0.3 mm 0.00 in/hr0.0 mm/hr 0.09 in2.3 mm
02:22 PM 41.6°F5.3°C 29.6°F-1.3°C 62% 1.0 mph NE1.6 kmh NE 7.0 mph11.3 kmh 29.02 in982.7 mb 0.01 in0.3 mm 0.00 in/hr0.0 mm/hr 0.09 in2.3 mm
02:20 PM 41.6°F5.3°C 30.0°F-1.1°C 63% 3.0 mph NE4.8 kmh NE 7.0 mph11.3 kmh 29.02 in982.7 mb 0.01 in0.3 mm 0.00 in/hr0.0 mm/hr 0.09 in2.3 mm
02:18 PM 41.6°F5.3°C 30.0°F-1.1°C 63% 4.0 mph NE6.4 kmh NE 7.0 mph11.3 kmh 29.02 in982.7 mb 0.01 in0.3 mm 0.00 in/hr0.0 mm/hr 0.09 in2.3 mm
02:16 PM 41.6°F5.3°C 30.0°F-1.1°C 63% 5.0 mph NE8.0 kmh NE 7.0 mph11.3 kmh 29.02 in982.7 mb 0.01 in0.3 mm 0.00 in/hr0.0 mm/hr 0.09 in2.3 mm
02:14 PM 41.6°F5.3°C 30.0°F-1.1°C 63% 3.0 mph SW4.8 kmh SW 7.0 mph11.3 kmh 29.02 in982.7 mb 0.01 in0.3 mm 0.00 in/hr0.0 mm/hr 0.09 in2.3 mm
02:12 PM 41.6°F5.3°C 30.0°F-1.1°C 63% 7.0 mph SW11.3 kmh SW 7.0 mph11.3 kmh 29.02 in982.7 mb 0.01 in0.3 mm 0.00 in/hr0.0 mm/hr 0.09 in2.3 mm
02:10 PM 41.6°F5.3°C 30.0°F-1.1°C 63% 2.0 mph SSW3.2 kmh SSW 7.0 mph11.3 kmh 29.02 in982.7 mb 0.01 in0.3 mm 0.00 in/hr0.0 mm/hr 0.09 in2.3 mm
02:08 PM 41.5°F5.3°C 29.9°F-1.2°C 63% 4.0 mph SSW6.4 kmh SSW 7.0 mph11.3 kmh 29.02 in982.7 mb 0.01 in0.3 mm 0.00 in/hr0.0 mm/hr 0.09 in2.3 mm
02:06 PM 41.5°F5.3°C 30.3°F-0.9°C 64% 5.0 mph SSW8.0 kmh SSW 6.0 mph9.7 kmh 29.02 in982.7 mb 0.01 in0.3 mm 0.00 in/hr0.0 mm/hr 0.09 in2.3 mm
02:04 PM 41.5°F5.3°C 29.9°F-1.2°C 63% 3.0 mph SSW4.8 kmh SSW 6.0 mph9.7 kmh 29.01 in982.4 mb 0.01 in0.3 mm 0.00 in/hr0.0 mm/hr 0.09 in2.3 mm
02:02 PM 41.5°F5.3°C 30.3°F-0.9°C 64% 2.0 mph SW3.2 kmh SW 6.0 mph9.7 kmh 29.01 in982.4 mb 0.01 in0.3 mm 0.00 in/hr0.0 mm/hr 0.09 in2.3 mm
02:00 PM 41.4°F5.2°C 30.5°F-0.8°C 65% 2.0 mph SW3.2 kmh SW 2.0 mph3.2 kmh 29.01 in982.4 mb 0.01 in0.3 mm 0.00 in/hr0.0 mm/hr 0.09 in2.3 mm
01:58 PM 41.4°F5.2°C 30.9°F-0.6°C 66% 2.0 mph SSW3.2 kmh SSW 7.0 mph11.3 kmh 29.01 in982.4 mb 0.03 in0.8 mm 0.00 in/hr0.0 mm/hr 0.09 in2.3 mm
01:56 PM 41.4°F5.2°C 30.9°F-0.6°C 66% 5.0 mph S8.0 kmh S 7.0 mph11.3 kmh 29.01 in982.4 mb 0.03 in0.8 mm 0.00 in/hr0.0 mm/hr 0.09 in2.3 mm
01:54 PM 41.3°F5.2°C 31.2°F-0.4°C 67% 2.0 mph SW3.2 kmh SW 7.0 mph11.3 kmh 29.01 in982.4 mb 0.03 in0.8 mm 0.00 in/hr0.0 mm/hr 0.09 in2.3 mm
01:52 PM 41.2°F5.1°C 30.7°F-0.7°C 66% 1.0 mph NE1.6 kmh NE 7.0 mph11.3 kmh 29.01 in982.4 mb 0.03 in0.8 mm 0.00 in/hr0.0 mm/hr 0.09 in2.3 mm
01:50 PM 41.2°F5.1°C 31.1°F-0.5°C 67% 2.0 mph SSW3.2 kmh SSW 7.0 mph11.3 kmh 29.01 in982.4 mb 0.03 in0.8 mm 0.00 in/hr0.0 mm/hr 0.09 in2.3 mm
01:48 PM 41.1°F5.1°C 31.4°F-0.3°C 68% 2.0 mph SSW3.2 kmh SSW 7.0 mph11.3 kmh 29.01 in982.4 mb 0.03 in0.8 mm 0.00 in/hr0.0 mm/hr 0.09 in2.3 mm
01:46 PM 40.9°F4.9°C 31.2°F-0.4°C 68% 4.0 mph S6.4 kmh S 7.0 mph11.3 kmh 29.01 in982.4 mb 0.03 in0.8 mm 0.00 in/hr0.0 mm/hr 0.09 in2.3 mm
01:44 PM 40.8°F4.9°C 31.1°F-0.5°C 68% 1.0 mph SW1.6 kmh SW 7.0 mph11.3 kmh 29.01 in982.4 mb 0.03 in0.8 mm 0.00 in/hr0.0 mm/hr 0.09 in2.3 mm
01:42 PM 40.7°F4.8°C 31.0°F-0.6°C 68% 4.0 mph SW6.4 kmh SW 7.0 mph11.3 kmh 29.01 in982.4 mb 0.03 in0.8 mm 0.00 in/hr0.0 mm/hr 0.09 in2.3 mm
01:40 PM 40.6°F4.8°C 30.9°F-0.6°C 68% 1.0 mph WSW1.6 kmh WSW 5.0 mph8.0 kmh 29.01 in982.4 mb 0.03 in0.8 mm 0.00 in/hr0.0 mm/hr 0.09 in2.3 mm
01:38 PM 40.6°F4.8°C 31.2°F-0.4°C 69% 1.0 mph NNE1.6 kmh NNE 5.0 mph8.0 kmh 29.01 in982.4 mb 0.03 in0.8 mm 0.00 in/hr0.0 mm/hr 0.09 in2.3 mm
01:36 PM 40.5°F4.7°C 30.8°F-0.7°C 68% 1.0 mph SSW1.6 kmh SSW 5.0 mph8.0 kmh 29.01 in982.4 mb 0.03 in0.8 mm 0.00 in/hr0.0 mm/hr 0.09 in2.3 mm
01:34 PM 40.4°F4.7°C 31.1°F-0.5°C 69% 1.0 mph N1.6 kmh N 5.0 mph8.0 kmh 29.01 in982.4 mb 0.03 in0.8 mm 0.00 in/hr0.0 mm/hr 0.09 in2.3 mm
01:32 PM 40.4°F4.7°C 31.1°F-0.5°C 69% 3.0 mph NNE4.8 kmh NNE 5.0 mph8.0 kmh 29.01 in982.4 mb 0.03 in0.8 mm 0.00 in/hr0.0 mm/hr 0.09 in2.3 mm
01:30 PM 40.3°F4.6°C 31.3°F-0.4°C 70% 1.0 mph S1.6 kmh S 1.0 mph1.6 kmh 29.01 in982.4 mb 0.03 in0.8 mm 0.00 in/hr0.0 mm/hr 0.09 in2.3 mm
01:28 PM 40.1°F4.5°C 31.1°F-0.5°C 70% 4.0 mph S6.4 kmh S 10.0 mph16.1 kmh 29.01 in982.4 mb 0.06 in1.5 mm 0.00 in/hr0.0 mm/hr 0.09 in2.3 mm
01:26 PM 40.0°F4.4°C 30.7°F-0.7°C 69% 2.0 mph E3.2 kmh E 10.0 mph16.1 kmh 29.01 in982.4 mb 0.06 in1.5 mm 0.00 in/hr0.0 mm/hr 0.09 in2.3 mm
01:24 PM 39.9°F4.4°C 30.6°F-0.8°C 69% 3.0 mph SSW4.8 kmh SSW 10.0 mph16.1 kmh 29.00 in982.1 mb 0.06 in1.5 mm 0.00 in/hr0.0 mm/hr 0.09 in2.3 mm
01:22 PM 39.9°F4.4°C 30.6°F-0.8°C 69% 3.0 mph SSW4.8 kmh SSW 10.0 mph16.1 kmh 29.00 in982.1 mb 0.06 in1.5 mm 0.00 in/hr0.0 mm/hr 0.09 in2.3 mm
01:20 PM 39.9°F4.4°C 30.6°F-0.8°C 69% 4.0 mph NE6.4 kmh NE 10.0 mph16.1 kmh 29.01 in982.4 mb 0.06 in1.5 mm 0.00 in/hr0.0 mm/hr 0.09 in2.3 mm
01:18 PM 39.8°F4.3°C 30.8°F-0.7°C 70% 2.0 mph SW3.2 kmh SW 10.0 mph16.1 kmh 29.01 in982.4 mb 0.06 in1.5 mm 0.30 in/hr7.6 mm/hr 0.09 in2.3 mm
01:16 PM 39.8°F4.3°C 30.8°F-0.7°C 70% 3.0 mph SW4.8 kmh SW 10.0 mph16.1 kmh 29.00 in982.1 mb 0.05 in1.3 mm 0.00 in/hr0.0 mm/hr 0.08 in2.0 mm
01:14 PM 39.7°F4.3°C 30.7°F-0.7°C 70% 2.0 mph SW3.2 kmh SW 10.0 mph16.1 kmh 29.00 in982.1 mb 0.05 in1.3 mm 0.00 in/hr0.0 mm/hr 0.08 in2.0 mm
01:12 PM 39.7°F4.3°C 30.7°F-0.7°C 70% 2.0 mph NE3.2 kmh NE 10.0 mph16.1 kmh 29.00 in982.1 mb 0.05 in1.3 mm 0.00 in/hr0.0 mm/hr 0.08 in2.0 mm
01:10 PM 39.6°F4.2°C 30.6°F-0.8°C 70% 1.0 mph SW1.6 kmh SW 10.0 mph16.1 kmh 29.00 in982.1 mb 0.05 in1.3 mm 0.00 in/hr0.0 mm/hr 0.08 in2.0 mm
01:08 PM 39.6°F4.2°C 30.6°F-0.8°C 70% 4.0 mph SW6.4 kmh SW 10.0 mph16.1 kmh 29.00 in982.1 mb 0.05 in1.3 mm 0.00 in/hr0.0 mm/hr 0.08 in2.0 mm
01:06 PM 39.6°F4.2°C 31.0°F-0.6°C 71% 2.0 mph N3.2 kmh N 10.0 mph16.1 kmh 29.00 in982.1 mb 0.05 in1.3 mm 0.00 in/hr0.0 mm/hr 0.08 in2.0 mm
01:04 PM 39.4°F4.1°C 30.8°F-0.7°C 71% 2.0 mph N3.2 kmh N 10.0 mph16.1 kmh 29.00 in982.1 mb 0.05 in1.3 mm 0.00 in/hr0.0 mm/hr 0.08 in2.0 mm
01:02 PM 39.3°F4.1°C 30.7°F-0.7°C 71% Calm Calm 6.0 mph9.7 kmh 29.00 in982.1 mb 0.05 in1.3 mm 0.00 in/hr0.0 mm/hr 0.08 in2.0 mm
01:00 PM 39.2°F4.0°C 31.0°F-0.6°C 72% 4.0 mph SW6.4 kmh SW 5.0 mph8.0 kmh 29.00 in982.1 mb 0.05 in1.3 mm 0.00 in/hr0.0 mm/hr 0.08 in2.0 mm
12:58 PM 39.0°F3.9°C 30.8°F-0.7°C 72% 2.0 mph SW3.2 kmh SW 10.0 mph16.1 kmh 29.00 in982.1 mb 0.07 in1.8 mm 0.00 in/hr0.0 mm/hr 0.08 in2.0 mm
12:56 PM 38.9°F3.8°C 30.7°F-0.7°C 72% 3.0 mph SSW4.8 kmh SSW 10.0 mph16.1 kmh 29.00 in982.1 mb 0.07 in1.8 mm 0.30 in/hr7.6 mm/hr 0.08 in2.0 mm
12:54 PM 38.8°F3.8°C 30.2°F-1.0°C 71% 2.0 mph SW3.2 kmh SW 10.0 mph16.1 kmh 29.00 in982.1 mb 0.06 in1.5 mm 0.00 in/hr0.0 mm/hr 0.07 in1.8 mm
12:52 PM 38.7°F3.7°C 30.1°F-1.1°C 71% 6.0 mph SSW9.7 kmh SSW 8.0 mph12.9 kmh 29.00 in982.1 mb 0.06 in1.5 mm 0.00 in/hr0.0 mm/hr 0.07 in1.8 mm
12:50 PM 38.7°F3.7°C 30.5°F-0.8°C 72% 1.0 mph SSW1.6 kmh SSW 8.0 mph12.9 kmh 29.00 in982.1 mb 0.06 in1.5 mm 0.00 in/hr0.0 mm/hr 0.07 in1.8 mm
12:48 PM 38.7°F3.7°C 30.5°F-0.8°C 72% 6.0 mph SSW9.7 kmh SSW 8.0 mph12.9 kmh 29.00 in982.1 mb 0.06 in1.5 mm 0.00 in/hr0.0 mm/hr 0.07 in1.8 mm
12:46 PM 38.6°F3.7°C 30.7°F-0.7°C 73% 3.0 mph SW4.8 kmh SW 8.0 mph12.9 kmh 29.00 in982.1 mb 0.06 in1.5 mm 0.00 in/hr0.0 mm/hr 0.07 in1.8 mm
12:44 PM 38.5°F3.6°C 30.6°F-0.8°C 73% 5.0 mph NE8.0 kmh NE 8.0 mph12.9 kmh 29.00 in982.1 mb 0.06 in1.5 mm 0.00 in/hr0.0 mm/hr 0.07 in1.8 mm
12:42 PM 38.4°F3.6°C 30.5°F-0.8°C 73% 3.0 mph S4.8 kmh S 8.0 mph12.9 kmh 28.99 in981.7 mb 0.06 in1.5 mm 0.00 in/hr0.0 mm/hr 0.07 in1.8 mm
12:40 PM 38.3°F3.5°C 30.4°F-0.9°C 73% 2.0 mph SW3.2 kmh SW 8.0 mph12.9 kmh 29.00 in982.1 mb 0.06 in1.5 mm 0.30 in/hr7.6 mm/hr 0.07 in1.8 mm
12:38 PM 38.1°F3.4°C 30.2°F-1.0°C 73% Calm Calm 8.0 mph12.9 kmh 28.99 in981.7 mb 0.05 in1.3 mm 0.00 in/hr0.0 mm/hr 0.06 in1.5 mm
12:36 PM 38.0°F3.3°C 30.1°F-1.1°C 73% 3.0 mph SSW4.8 kmh SSW 8.0 mph12.9 kmh 28.99 in981.7 mb 0.05 in1.3 mm 0.00 in/hr0.0 mm/hr 0.06 in1.5 mm
12:34 PM 37.9°F3.3°C 30.0°F-1.1°C 73% 4.0 mph SW6.4 kmh SW 8.0 mph12.9 kmh 29.00 in982.1 mb 0.05 in1.3 mm 0.00 in/hr0.0 mm/hr 0.06 in1.5 mm
12:32 PM 37.8°F3.2°C 29.9°F-1.2°C 73% 2.0 mph SW3.2 kmh SW 8.0 mph12.9 kmh 28.99 in981.7 mb 0.05 in1.3 mm 0.00 in/hr0.0 mm/hr 0.06 in1.5 mm
12:30 PM 37.8°F3.2°C 29.9°F-1.2°C 73% 2.0 mph WNW3.2 kmh WNW 2.0 mph3.2 kmh 28.99 in981.7 mb 0.05 in1.3 mm 0.00 in/hr0.0 mm/hr 0.06 in1.5 mm
12:28 PM 37.7°F3.2°C 30.2°F-1.0°C 74% 5.0 mph SW8.0 kmh SW 10.0 mph16.1 kmh 29.00 in982.1 mb 0.06 in1.5 mm 0.30 in/hr7.6 mm/hr 0.06 in1.5 mm
12:26 PM 37.5°F3.1°C 29.7°F-1.3°C 73% 5.0 mph SSW8.0 kmh SSW 10.0 mph16.1 kmh 28.99 in981.7 mb 0.05 in1.3 mm 0.00 in/hr0.0 mm/hr 0.05 in1.3 mm
12:24 PM 37.4°F3.0°C 29.6°F-1.3°C 73% 2.0 mph SSW3.2 kmh SSW 10.0 mph16.1 kmh 28.99 in981.7 mb 0.05 in1.3 mm 0.00 in/hr0.0 mm/hr 0.05 in1.3 mm
12:22 PM 37.4°F3.0°C 29.9°F-1.2°C 74% 5.0 mph SW8.0 kmh SW 10.0 mph16.1 kmh 28.99 in981.7 mb 0.05 in1.3 mm 0.00 in/hr0.0 mm/hr 0.05 in1.3 mm
12:20 PM 37.2°F2.9°C 29.4°F-1.4°C 73% 1.0 mph SSW1.6 kmh SSW 9.0 mph14.5 kmh 28.99 in981.7 mb 0.05 in1.3 mm 0.00 in/hr0.0 mm/hr 0.05 in1.3 mm
12:18 PM 37.1°F2.8°C 29.3°F-1.5°C 73% 1.0 mph SSW1.6 kmh SSW 9.0 mph14.5 kmh 28.99 in981.7 mb 0.05 in1.3 mm 0.00 in/hr0.0 mm/hr 0.05 in1.3 mm
12:16 PM 37.1°F2.8°C 29.3°F-1.5°C 73% 3.0 mph SSW4.8 kmh SSW 9.0 mph14.5 kmh 29.00 in982.1 mb 0.05 in1.3 mm 0.00 in/hr0.0 mm/hr 0.05 in1.3 mm
12:14 PM 37.1°F2.8°C 29.3°F-1.5°C 73% 5.0 mph SSW8.0 kmh SSW 8.0 mph12.9 kmh 28.99 in981.7 mb 0.05 in1.3 mm 0.30 in/hr7.6 mm/hr 0.05 in1.3 mm
12:12 PM 37.0°F2.8°C 29.2°F-1.6°C 73% 4.0 mph SSW6.4 kmh SSW 8.0 mph12.9 kmh 29.00 in982.1 mb 0.04 in1.0 mm 0.00 in/hr0.0 mm/hr 0.04 in1.0 mm
12:10 PM 37.0°F2.8°C 29.2°F-1.6°C 73% 1.0 mph SW1.6 kmh SW 8.0 mph12.9 kmh 29.00 in982.1 mb 0.04 in1.0 mm 0.00 in/hr0.0 mm/hr 0.04 in1.0 mm
12:08 PM 37.0°F2.8°C 29.5°F-1.4°C 74% 5.0 mph SW8.0 kmh SW 8.0 mph12.9 kmh 29.00 in982.1 mb 0.04 in1.0 mm 0.00 in/hr0.0 mm/hr 0.04 in1.0 mm
12:06 PM 36.9°F2.7°C 29.4°F-1.4°C 74% 2.0 mph S3.2 kmh S 5.0 mph8.0 kmh 29.00 in982.1 mb 0.04 in1.0 mm 0.00 in/hr0.0 mm/hr 0.04 in1.0 mm
12:04 PM 36.8°F2.7°C 29.0°F-1.7°C 73% 2.0 mph SSW3.2 kmh SSW 5.0 mph8.0 kmh 29.00 in982.1 mb 0.04 in1.0 mm 0.30 in/hr7.6 mm/hr 0.04 in1.0 mm
12:02 PM 36.8°F2.7°C 29.3°F-1.5°C 74% 5.0 mph SSW8.0 kmh SSW 5.0 mph8.0 kmh 29.00 in982.1 mb 0.03 in0.8 mm 0.00 in/hr0.0 mm/hr 0.03 in0.8 mm
12:00 PM 36.7°F2.6°C 29.2°F-1.6°C 74% 1.0 mph SSW1.6 kmh SSW 1.0 mph1.6 kmh 29.00 in982.1 mb 0.03 in0.8 mm 0.00 in/hr0.0 mm/hr 0.03 in0.8 mm
11:58 AM 36.6°F2.6°C 29.1°F-1.6°C 74% 2.0 mph SSW3.2 kmh SSW 5.0 mph8.0 kmh 29.00 in982.1 mb 0.03 in0.8 mm 0.00 in/hr0.0 mm/hr 0.03 in0.8 mm
11:56 AM 36.5°F2.5°C 29.0°F-1.7°C 74% 1.0 mph SSW1.6 kmh SSW 5.0 mph8.0 kmh 29.00 in982.1 mb 0.03 in0.8 mm 0.00 in/hr0.0 mm/hr 0.03 in0.8 mm
11:54 AM 36.4°F2.4°C 28.9°F-1.7°C 74% 2.0 mph SSW3.2 kmh SSW 5.0 mph8.0 kmh 29.01 in982.4 mb 0.03 in0.8 mm 0.00 in/hr0.0 mm/hr 0.03 in0.8 mm
11:52 AM 36.3°F2.4°C 28.8°F-1.8°C 74% 1.0 mph SSW1.6 kmh SSW 5.0 mph8.0 kmh 29.00 in982.1 mb 0.03 in0.8 mm 0.30 in/hr7.6 mm/hr 0.03 in0.8 mm
11:50 AM 36.2°F2.3°C 28.7°F-1.8°C 74% 2.0 mph S3.2 kmh S 5.0 mph8.0 kmh 29.00 in982.1 mb 0.02 in0.5 mm 0.00 in/hr0.0 mm/hr 0.02 in0.5 mm
11:48 AM 36.2°F2.3°C 28.7°F-1.8°C 74% 3.0 mph S4.8 kmh S 5.0 mph8.0 kmh 29.01 in982.4 mb 0.02 in0.5 mm 0.00 in/hr0.0 mm/hr 0.02 in0.5 mm
11:46 AM 36.1°F2.3°C 28.6°F-1.9°C 74% 2.0 mph S3.2 kmh S 5.0 mph8.0 kmh 29.01 in982.4 mb 0.02 in0.5 mm 0.00 in/hr0.0 mm/hr 0.02 in0.5 mm
11:44 AM 36.0°F2.2°C 28.5°F-1.9°C 74% 2.0 mph S3.2 kmh S 5.0 mph8.0 kmh 29.01 in982.4 mb 0.02 in0.5 mm 0.00 in/hr0.0 mm/hr 0.02 in0.5 mm
11:42 AM 35.9°F2.2°C 28.4°F-2.0°C 74% Calm Calm 5.0 mph8.0 kmh 29.01 in982.4 mb 0.02 in0.5 mm 0.00 in/hr0.0 mm/hr 0.02 in0.5 mm
11:40 AM 35.8°F2.1°C 28.3°F-2.1°C 74% 1.0 mph S1.6 kmh S 5.0 mph8.0 kmh 29.01 in982.4 mb 0.02 in0.5 mm 0.30 in/hr7.6 mm/hr 0.02 in0.5 mm
11:38 AM 35.7°F2.1°C 27.9°F-2.3°C 73% 2.0 mph S3.2 kmh S 5.0 mph8.0 kmh 29.00 in982.1 mb 0.01 in0.3 mm 0.00 in/hr0.0 mm/hr 0.01 in0.3 mm
11:36 AM 35.6°F2.0°C 27.8°F-2.3°C 73% 4.0 mph S6.4 kmh S 5.0 mph8.0 kmh 29.01 in982.4 mb 0.01 in0.3 mm 0.00 in/hr0.0 mm/hr 0.01 in0.3 mm
11:34 AM 35.6°F2.0°C 28.1°F-2.2°C 74% 4.0 mph S6.4 kmh S 4.0 mph6.4 kmh 29.01 in982.4 mb 0.01 in0.3 mm 0.00 in/hr0.0 mm/hr 0.01 in0.3 mm
11:32 AM 35.5°F1.9°C 28.1°F-2.2°C 74% 2.0 mph W3.2 kmh W 3.0 mph4.8 kmh 29.01 in982.4 mb 0.01 in0.3 mm 0.00 in/hr0.0 mm/hr 0.01 in0.3 mm
11:30 AM 35.4°F1.9°C 27.6°F-2.4°C 73% 1.0 mph W1.6 kmh W 2.0 mph3.2 kmh 29.01 in982.4 mb 0.01 in0.3 mm 0.00 in/hr0.0 mm/hr 0.01 in0.3 mm
11:28 AM 35.3°F1.8°C 27.5°F-2.5°C 73% Calm Calm 3.0 mph4.8 kmh 29.01 in982.4 mb 0.01 in0.3 mm 0.00 in/hr0.0 mm/hr 0.01 in0.3 mm
11:26 AM 35.2°F1.8°C 27.4°F-2.6°C 73% Calm Calm 3.0 mph4.8 kmh 29.01 in982.4 mb 0.01 in0.3 mm 0.00 in/hr0.0 mm/hr 0.01 in0.3 mm
11:24 AM 35.1°F1.7°C 27.3°F-2.6°C 73% Calm Calm 3.0 mph4.8 kmh 29.02 in982.7 mb 0.01 in0.3 mm 0.00 in/hr0.0 mm/hr 0.01 in0.3 mm
11:22 AM 35.0°F1.7°C 27.2°F-2.7°C 73% Calm Calm 3.0 mph4.8 kmh 29.02 in982.7 mb 0.01 in0.3 mm 0.30 in/hr7.6 mm/hr 0.01 in0.3 mm
11:20 AM 35.0°F1.7°C 27.2°F-2.7°C 73% 1.0 mph W1.6 kmh W 3.0 mph4.8 kmh 29.02 in982.7 mb 0.00 in0.0 mm 0.00 in/hr0.0 mm/hr 0.00 in0.0 mm
11:18 AM 34.8°F1.6°C 27.4°F-2.6°C 74% Calm Calm 3.0 mph4.8 kmh 29.02 in982.7 mb 0.00 in0.0 mm 0.00 in/hr0.0 mm/hr 0.00 in0.0 mm
11:16 AM 34.6°F1.4°C 26.9°F-2.8°C 73% 2.0 mph W3.2 kmh W 3.0 mph4.8 kmh 29.02 in982.7 mb 0.00 in0.0 mm 0.00 in/hr0.0 mm/hr 0.00 in0.0 mm
11:14 AM 34.5°F1.4°C 26.8°F-2.9°C 73% Calm Calm 3.0 mph4.8 kmh 29.02 in982.7 mb 0.00 in0.0 mm 0.00 in/hr0.0 mm/hr 0.00 in0.0 mm
11:12 AM 34.4°F1.3°C 26.7°F-2.9°C 73% 1.0 mph W1.6 kmh W 3.0 mph4.8 kmh 29.03 in983.1 mb 0.00 in0.0 mm 0.00 in/hr0.0 mm/hr 0.00 in0.0 mm
11:10 AM 34.3°F1.3°C 26.6°F-3.0°C 73% Calm Calm 3.0 mph4.8 kmh 29.03 in983.1 mb 0.00 in0.0 mm 0.00 in/hr0.0 mm/hr 0.00 in0.0 mm
11:08 AM 34.3°F1.3°C 26.6°F-3.0°C 73% 1.0 mph W1.6 kmh W 3.0 mph4.8 kmh 29.03 in983.1 mb 0.00 in0.0 mm 0.00 in/hr0.0 mm/hr 0.00 in0.0 mm
Warning: gmdate() expects parameter 2 to be long, string given in /big/dom/weatherforyou.com/www/personal_weather_stations/index.php on line 233 34.3°F1.3°C 26.6°F-3.0°C 73% 2.0 mph W3.2 kmh W 3.0 mph4.8 kmh 29.03 in983.1 mb 0.00 in0.0 mm 0.00 in/hr0.0 mm/hr 0.00 in0.0 mm
11:04 AM 34.4°F1.3°C 26.7°F-2.9°C 73% Calm Calm 3.0 mph4.8 kmh 29.03 in983.1 mb 0.00 in0.0 mm 0.00 in/hr0.0 mm/hr 0.00 in0.0 mm
11:02 AM 34.4°F1.3°C 26.7°F-2.9°C 73% Calm Calm 2.0 mph3.2 kmh 29.03 in983.1 mb 0.00 in0.0 mm 0.00 in/hr0.0 mm/hr 0.00 in0.0 mm
11:00 AM 34.4°F1.3°C 26.7°F-2.9°C 73% Calm Calm -- 29.03 in983.1 mb 0.00 in0.0 mm 0.00 in/hr0.0 mm/hr 0.00 in0.0 mm
10:58 AM 34.4°F1.3°C 26.7°F-2.9°C 73% Calm Calm 1.0 mph1.6 kmh 29.03 in983.1 mb 0.00 in0.0 mm 0.00 in/hr0.0 mm/hr 0.00 in0.0 mm
10:56 AM 34.4°F1.3°C 26.7°F-2.9°C 73% Calm Calm 1.0 mph1.6 kmh 29.03 in983.1 mb 0.00 in0.0 mm 0.00 in/hr0.0 mm/hr 0.00 in0.0 mm
10:54 AM 34.4°F1.3°C 26.7°F-2.9°C 73% Calm Calm 1.0 mph1.6 kmh 29.04 in983.4 mb 0.00 in0.0 mm 0.00 in/hr0.0 mm/hr 0.00 in0.0 mm
10:52 AM 34.5°F1.4°C 26.4°F-3.1°C 72% Calm Calm 1.0 mph1.6 kmh 29.04 in983.4 mb 0.00 in0.0 mm 0.00 in/hr0.0 mm/hr 0.00 in0.0 mm
10:50 AM 34.5°F1.4°C 26.4°F-3.1°C 72% Calm Calm 1.0 mph1.6 kmh 29.04 in983.4 mb 0.00 in0.0 mm 0.00 in/hr0.0 mm/hr 0.00 in0.0 mm
10:48 AM 34.5°F1.4°C 26.4°F-3.1°C 72% Calm Calm 1.0 mph1.6 kmh 29.03 in983.1 mb 0.00 in0.0 mm 0.00 in/hr0.0 mm/hr 0.00 in0.0 mm
10:46 AM 34.4°F1.3°C 26.3°F-3.2°C 72% Calm Calm 1.0 mph1.6 kmh 29.03 in983.1 mb 0.00 in0.0 mm 0.00 in/hr0.0 mm/hr 0.00 in0.0 mm
10:44 AM 34.3°F1.3°C 26.6°F-3.0°C 73% Calm Calm -- 29.02 in982.7 mb 0.00 in0.0 mm 0.00 in/hr0.0 mm/hr 0.00 in0.0 mm
10:42 AM 34.2°F1.2°C 26.5°F-3.1°C 73% Calm Calm -- 29.02 in982.7 mb 0.00 in0.0 mm 0.00 in/hr0.0 mm/hr 0.00 in0.0 mm
10:40 AM 34.0°F1.1°C 26.3°F-3.2°C 73% Calm Calm -- 29.02 in982.7 mb 0.00 in0.0 mm 0.00 in/hr0.0 mm/hr 0.00 in0.0 mm
10:38 AM 33.9°F1.1°C 26.2°F-3.2°C 73% Calm Calm -- 29.02 in982.7 mb 0.00 in0.0 mm 0.00 in/hr0.0 mm/hr 0.00 in0.0 mm
10:36 AM 33.8°F1.0°C 26.1°F-3.3°C 73% Calm Calm -- 29.02 in982.7 mb 0.00 in0.0 mm 0.00 in/hr0.0 mm/hr 0.00 in0.0 mm
10:34 AM 33.6°F0.9°C 25.9°F-3.4°C 73% Calm Calm -- 29.03 in983.1 mb 0.00 in0.0 mm 0.00 in/hr0.0 mm/hr 0.00 in0.0 mm
10:32 AM 33.5°F0.8°C 26.1°F-3.3°C 74% Calm Calm -- 29.04 in983.4 mb 0.00 in0.0 mm 0.00 in/hr0.0 mm/hr 0.00 in0.0 mm
10:30 AM 33.4°F0.8°C 26.0°F-3.3°C 74% Calm Calm -- 29.04 in983.4 mb 0.00 in0.0 mm 0.00 in/hr0.0 mm/hr 0.00 in0.0 mm
10:28 AM 33.3°F0.7°C 25.6°F-3.6°C 73% Calm Calm -- 29.05 in983.7 mb 0.00 in0.0 mm 0.00 in/hr0.0 mm/hr 0.00 in0.0 mm
10:26 AM 33.2°F0.7°C 25.5°F-3.6°C 73% Calm Calm -- 29.05 in983.7 mb 0.00 in0.0 mm 0.00 in/hr0.0 mm/hr 0.00 in0.0 mm
10:24 AM 33.2°F0.7°C 25.5°F-3.6°C 73% Calm Calm -- 29.06 in984.1 mb 0.00 in0.0 mm 0.00 in/hr0.0 mm/hr 0.00 in0.0 mm
10:22 AM 33.1°F0.6°C 25.4°F-3.7°C 73% Calm Calm -- 29.05 in983.7 mb 0.00 in0.0 mm 0.00 in/hr0.0 mm/hr 0.00 in0.0 mm
10:20 AM 33.0°F0.6°C 25.3°F-3.7°C 73% Calm Calm -- 29.05 in983.7 mb 0.00 in0.0 mm 0.00 in/hr0.0 mm/hr 0.00 in0.0 mm
10:18 AM 32.9°F0.5°C 25.2°F-3.8°C 73% Calm Calm -- 29.06 in984.1 mb 0.00 in0.0 mm 0.00 in/hr0.0 mm/hr 0.00 in0.0 mm
10:16 AM 32.9°F0.5°C 24.9°F-3.9°C 72% Calm Calm -- 29.06 in984.1 mb 0.00 in0.0 mm 0.00 in/hr0.0 mm/hr 0.00 in0.0 mm
10:14 AM 32.8°F0.4°C 24.8°F-4.0°C 72% Calm Calm -- 29.06 in984.1 mb 0.00 in0.0 mm 0.00 in/hr0.0 mm/hr 0.00 in0.0 mm
10:12 AM 32.8°F0.4°C 24.8°F-4.0°C 72% Calm Calm -- 29.06 in984.1 mb 0.00 in0.0 mm 0.00 in/hr0.0 mm/hr 0.00 in0.0 mm
10:10 AM 32.8°F0.4°C 24.8°F-4.0°C 72% Calm Calm -- 29.06 in984.1 mb 0.00 in0.0 mm 0.00 in/hr0.0 mm/hr 0.00 in0.0 mm
10:08 AM 32.7°F0.4°C 24.7°F-4.1°C 72% Calm Calm -- 29.06 in984.1 mb 0.00 in0.0 mm 0.00 in/hr0.0 mm/hr 0.00 in0.0 mm
10:06 AM 32.7°F0.4°C 24.7°F-4.1°C 72% Calm Calm -- 29.06 in984.1 mb 0.00 in0.0 mm 0.00 in/hr0.0 mm/hr 0.00 in0.0 mm
10:04 AM 32.6°F0.3°C 24.6°F-4.1°C 72% Calm Calm -- 29.06 in984.1 mb 0.00 in0.0 mm 0.00 in/hr0.0 mm/hr 0.00 in0.0 mm
10:02 AM 32.6°F0.3°C 24.3°F-4.3°C 71% Calm Calm -- 29.06 in984.1 mb 0.00 in0.0 mm 0.00 in/hr0.0 mm/hr 0.00 in0.0 mm
10:00 AM 32.6°F0.3°C 24.3°F-4.3°C 71% Calm Calm -- 29.07 in984.4 mb 0.00 in0.0 mm 0.00 in/hr0.0 mm/hr 0.00 in0.0 mm
09:58 AM 32.6°F0.3°C 24.3°F-4.3°C 71% Calm Calm -- 29.07 in984.4 mb 0.00 in0.0 mm 0.00 in/hr0.0 mm/hr 0.00 in0.0 mm
09:56 AM 32.6°F0.3°C 23.9°F-4.5°C 70% Calm Calm -- 29.07 in984.4 mb 0.00 in0.0 mm 0.00 in/hr0.0 mm/hr 0.00 in0.0 mm
09:54 AM 32.5°F0.3°C 23.8°F-4.6°C 70% Calm Calm -- 29.07 in984.4 mb 0.00 in0.0 mm 0.00 in/hr0.0 mm/hr 0.00 in0.0 mm
09:52 AM 32.5°F0.3°C 23.8°F-4.6°C 70% Calm Calm -- 29.07 in984.4 mb 0.00 in0.0 mm 0.00 in/hr0.0 mm/hr 0.00 in0.0 mm
09:50 AM 32.5°F0.3°C 23.8°F-4.6°C 70% Calm Calm -- 29.07 in984.4 mb 0.00 in0.0 mm 0.00 in/hr0.0 mm/hr 0.00 in0.0 mm
09:48 AM 32.5°F0.3°C 23.8°F-4.6°C 70% Calm Calm -- 29.07 in984.4 mb 0.00 in0.0 mm 0.00 in/hr0.0 mm/hr 0.00 in0.0 mm
09:46 AM 32.5°F0.3°C 23.8°F-4.6°C 70% Calm Calm -- 29.07 in984.4 mb 0.00 in0.0 mm 0.00 in/hr0.0 mm/hr 0.00 in0.0 mm
09:44 AM 32.4°F0.2°C 23.7°F-4.6°C 70% Calm Calm -- 29.07 in984.4 mb 0.00 in0.0 mm 0.00 in/hr0.0 mm/hr 0.00 in0.0 mm
09:41 AM 32.4°F0.2°C 23.7°F-4.6°C 70% Calm Calm -- 29.07 in984.4 mb 0.00 in0.0 mm 0.00 in/hr0.0 mm/hr 0.00 in0.0 mm
09:40 AM 32.3°F0.2°C 23.3°F-4.8°C 69% Calm Calm -- 29.07 in984.4 mb 0.00 in0.0 mm 0.00 in/hr0.0 mm/hr 0.00 in0.0 mm
09:38 AM 32.3°F0.2°C 23.3°F-4.8°C 69% Calm Calm -- 29.06 in984.1 mb 0.00 in0.0 mm 0.00 in/hr0.0 mm/hr 0.00 in0.0 mm
09:36 AM 32.2°F0.1°C 23.2°F-4.9°C 69% Calm Calm -- 29.07 in984.4 mb 0.00 in0.0 mm 0.00 in/hr0.0 mm/hr 0.00 in0.0 mm
09:34 AM 32.2°F0.1°C 23.2°F-4.9°C 69% Calm Calm -- 29.07 in984.4 mb 0.00 in0.0 mm 0.00 in/hr0.0 mm/hr 0.00 in0.0 mm
09:32 AM 32.1°F0.1°C 23.1°F-4.9°C 69% Calm Calm -- 29.07 in984.4 mb 0.00 in0.0 mm 0.00 in/hr0.0 mm/hr 0.00 in0.0 mm
09:30 AM 32.1°F0.1°C 22.8°F-5.1°C 68% Calm Calm -- 29.06 in984.1 mb 0.00 in0.0 mm 0.00 in/hr0.0 mm/hr 0.00 in0.0 mm
09:28 AM 32.1°F0.1°C 22.8°F-5.1°C 68% Calm Calm 2.0 mph3.2 kmh 29.05 in983.7 mb 0.00 in0.0 mm 0.00 in/hr0.0 mm/hr 0.00 in0.0 mm
09:26 AM 32.0°F0.0°C 22.7°F-5.2°C 68% Calm Calm 2.0 mph3.2 kmh 29.06 in984.1 mb 0.00 in0.0 mm 0.00 in/hr0.0 mm/hr 0.00 in0.0 mm
09:24 AM 31.9°F-0.1°C 22.6°F-5.2°C 68% Calm Calm 2.0 mph3.2 kmh 29.06 in984.1 mb 0.00 in0.0 mm 0.00 in/hr0.0 mm/hr 0.00 in0.0 mm
09:22 AM 31.9°F-0.1°C 22.6°F-5.2°C 68% Calm Calm 2.0 mph3.2 kmh 29.06 in984.1 mb 0.00 in0.0 mm 0.00 in/hr0.0 mm/hr 0.00 in0.0 mm
09:20 AM 31.9°F-0.1°C 22.6°F-5.2°C 68% Calm Calm 2.0 mph3.2 kmh 29.06 in984.1 mb 0.00 in0.0 mm 0.00 in/hr0.0 mm/hr 0.00 in0.0 mm
09:18 AM 31.8°F-0.1°C 22.5°F-5.3°C 68% Calm Calm 2.0 mph3.2 kmh 29.06 in984.1 mb 0.00 in0.0 mm 0.00 in/hr0.0 mm/hr 0.00 in0.0 mm
09:16 AM 31.7°F-0.2°C 22.4°F-5.3°C 68% Calm Calm 2.0 mph3.2 kmh 29.05 in983.7 mb 0.00 in0.0 mm 0.00 in/hr0.0 mm/hr 0.00 in0.0 mm
09:14 AM 31.7°F-0.2°C 22.4°F-5.3°C 68% Calm Calm 2.0 mph3.2 kmh 29.05 in983.7 mb 0.00 in0.0 mm 0.00 in/hr0.0 mm/hr 0.00 in0.0 mm
09:12 AM 31.7°F-0.2°C 22.4°F-5.3°C 68% Calm Calm 2.0 mph3.2 kmh 29.05 in983.7 mb 0.00 in0.0 mm 0.00 in/hr0.0 mm/hr 0.00 in0.0 mm
09:10 AM 31.6°F-0.2°C 22.3°F-5.4°C 68% Calm Calm 2.0 mph3.2 kmh 29.05 in983.7 mb 0.00 in0.0 mm 0.00 in/hr0.0 mm/hr 0.00 in0.0 mm
09:08 AM 31.6°F-0.2°C 22.3°F-5.4°C 68% Calm Calm -- 29.06 in984.1 mb 0.00 in0.0 mm 0.00 in/hr0.0 mm/hr 0.00 in0.0 mm
09:06 AM 31.5°F-0.3°C 22.2°F-5.4°C 68% Calm Calm -- 29.06 in984.1 mb 0.00 in0.0 mm 0.00 in/hr0.0 mm/hr 0.00 in0.0 mm
09:04 AM 31.4°F-0.3°C 21.7°F-5.7°C 67% Calm Calm -- 29.05 in983.7 mb 0.00 in0.0 mm 0.00 in/hr0.0 mm/hr 0.00 in0.0 mm
09:02 AM 31.4°F-0.3°C 21.7°F-5.7°C 67% Calm Calm -- 29.06 in984.1 mb 0.00 in0.0 mm 0.00 in/hr0.0 mm/hr 0.00 in0.0 mm
09:00 AM 31.3°F-0.4°C 21.6°F-5.8°C 67% Calm Calm -- 29.06 in984.1 mb 0.00 in0.0 mm 0.00 in/hr0.0 mm/hr 0.00 in0.0 mm
08:58 AM 31.3°F-0.4°C 21.6°F-5.8°C 67% Calm Calm 2.0 mph3.2 kmh 29.06 in984.1 mb 0.00 in0.0 mm 0.00 in/hr0.0 mm/hr 0.00 in0.0 mm
08:56 AM 31.2°F-0.4°C 21.5°F-5.8°C 67% Calm Calm 2.0 mph3.2 kmh 29.05 in983.7 mb 0.00 in0.0 mm 0.00 in/hr0.0 mm/hr 0.00 in0.0 mm
08:54 AM 31.1°F-0.5°C 21.1°F-6.1°C 66% Calm Calm 2.0 mph3.2 kmh 29.05 in983.7 mb 0.00 in0.0 mm 0.00 in/hr0.0 mm/hr 0.00 in0.0 mm
08:52 AM 31.1°F-0.5°C 21.4°F-5.9°C 67% Calm Calm 2.0 mph3.2 kmh 29.05 in983.7 mb 0.00 in0.0 mm 0.00 in/hr0.0 mm/hr 0.00 in0.0 mm
08:50 AM 31.0°F-0.6°C 21.3°F-5.9°C 67% Calm Calm 2.0 mph3.2 kmh 29.05 in983.7 mb 0.00 in0.0 mm 0.00 in/hr0.0 mm/hr 0.00 in0.0 mm
08:48 AM 30.9°F-0.6°C 21.3°F-5.9°C 67% Calm Calm 2.0 mph3.2 kmh 29.04 in983.4 mb 0.00 in0.0 mm 0.00 in/hr0.0 mm/hr 0.00 in0.0 mm
08:46 AM 30.9°F-0.6°C 21.3°F-5.9°C 67% Calm Calm 2.0 mph3.2 kmh 29.05 in983.7 mb 0.00 in0.0 mm 0.00 in/hr0.0 mm/hr 0.00 in0.0 mm
08:44 AM 30.8°F-0.7°C 21.5°F-5.8°C 68% Calm Calm 2.0 mph3.2 kmh 29.04 in983.4 mb 0.00 in0.0 mm 0.00 in/hr0.0 mm/hr 0.00 in0.0 mm
08:42 AM 30.8°F-0.7°C 21.5°F-5.8°C 68% Calm Calm 2.0 mph3.2 kmh 29.04 in983.4 mb 0.00 in0.0 mm 0.00 in/hr0.0 mm/hr 0.00 in0.0 mm
08:40 AM 30.7°F-0.7°C 21.4°F-5.9°C 68% Calm Calm 2.0 mph3.2 kmh 29.04 in983.4 mb 0.00 in0.0 mm 0.00 in/hr0.0 mm/hr 0.00 in0.0 mm
08:38 AM 30.7°F-0.7°C 20.7°F-6.3°C 66% Calm Calm 2.0 mph3.2 kmh 29.03 in983.1 mb 0.00 in0.0 mm 0.00 in/hr0.0 mm/hr 0.00 in0.0 mm
08:36 AM 30.6°F-0.8°C 21.0°F-6.1°C 67% Calm Calm 2.0 mph3.2 kmh 29.04 in983.4 mb 0.00 in0.0 mm 0.00 in/hr0.0 mm/hr 0.00 in0.0 mm
08:34 AM 30.6°F-0.8°C 21.0°F-6.1°C 67% Calm Calm 2.0 mph3.2 kmh 29.04 in983.4 mb 0.00 in0.0 mm 0.00 in/hr0.0 mm/hr 0.00 in0.0 mm
08:32 AM 30.5°F-0.8°C 20.9°F-6.2°C 67% 2.0 mph W3.2 kmh W 2.0 mph3.2 kmh 29.03 in983.1 mb 0.00 in0.0 mm 0.00 in/hr0.0 mm/hr 0.00 in0.0 mm
08:30 AM 30.5°F-0.8°C 20.9°F-6.2°C 67% Calm Calm -- 29.03 in983.1 mb 0.00 in0.0 mm 0.00 in/hr0.0 mm/hr 0.00 in0.0 mm
08:28 AM 30.4°F-0.9°C 20.4°F-6.4°C 66% Calm Calm 2.0 mph3.2 kmh 29.04 in983.4 mb 0.00 in0.0 mm 0.00 in/hr0.0 mm/hr 0.00 in0.0 mm
08:26 AM 30.4°F-0.9°C 20.8°F-6.2°C 67% Calm Calm 2.0 mph3.2 kmh 29.03 in983.1 mb 0.00 in0.0 mm 0.00 in/hr0.0 mm/hr 0.00 in0.0 mm
08:24 AM 30.3°F-0.9°C 21.0°F-6.1°C 68% Calm Calm 2.0 mph3.2 kmh 29.03 in983.1 mb 0.00 in0.0 mm 0.00 in/hr0.0 mm/hr 0.00 in0.0 mm
08:22 AM 30.2°F-1.0°C 20.9°F-6.2°C 68% Calm Calm 2.0 mph3.2 kmh 29.03 in983.1 mb 0.00 in0.0 mm 0.00 in/hr0.0 mm/hr 0.00 in0.0 mm
08:20 AM 30.2°F-1.0°C 20.9°F-6.2°C 68% Calm Calm 2.0 mph3.2 kmh 29.03 in983.1 mb 0.00 in0.0 mm 0.00 in/hr0.0 mm/hr 0.00 in0.0 mm
08:18 AM 30.1°F-1.1°C 20.5°F-6.4°C 67% Calm Calm 2.0 mph3.2 kmh 29.03 in983.1 mb 0.00 in0.0 mm 0.00 in/hr0.0 mm/hr 0.00 in0.0 mm
08:16 AM 30.1°F-1.1°C 20.5°F-6.4°C 67% Calm Calm 2.0 mph3.2 kmh 29.03 in983.1 mb 0.00 in0.0 mm 0.00 in/hr0.0 mm/hr 0.00 in0.0 mm
08:14 AM 30.0°F-1.1°C 20.4°F-6.4°C 67% Calm Calm 2.0 mph3.2 kmh 29.04 in983.4 mb 0.00 in0.0 mm 0.00 in/hr0.0 mm/hr 0.00 in0.0 mm
08:12 AM 29.9°F-1.2°C 20.6°F-6.3°C 68% Calm Calm 1.0 mph1.6 kmh 29.03 in983.1 mb 0.00 in0.0 mm 0.00 in/hr0.0 mm/hr 0.00 in0.0 mm
08:10 AM 29.8°F-1.2°C 20.5°F-6.4°C 68% Calm Calm -- 29.04 in983.4 mb 0.00 in0.0 mm 0.00 in/hr0.0 mm/hr 0.00 in0.0 mm
08:08 AM 29.7°F-1.3°C 20.5°F-6.4°C 68% Calm Calm -- 29.04 in983.4 mb 0.00 in0.0 mm 0.00 in/hr0.0 mm/hr 0.00 in0.0 mm
08:06 AM 29.6°F-1.3°C 20.4°F-6.4°C 68% Calm Calm -- 29.03 in983.1 mb 0.00 in0.0 mm 0.00 in/hr0.0 mm/hr 0.00 in0.0 mm
08:04 AM 29.5°F-1.4°C 20.3°F-6.5°C 68% Calm Calm -- 29.03 in983.1 mb 0.00 in0.0 mm 0.00 in/hr0.0 mm/hr 0.00 in0.0 mm
08:02 AM 29.5°F-1.4°C 20.3°F-6.5°C 68% Calm Calm -- 29.03 in983.1 mb 0.00 in0.0 mm 0.00 in/hr0.0 mm/hr 0.00 in0.0 mm
08:00 AM 29.4°F-1.4°C 19.8°F-6.8°C 67% Calm Calm -- 29.03 in983.1 mb 0.00 in0.0 mm 0.00 in/hr0.0 mm/hr 0.00 in0.0 mm
07:58 AM 29.3°F-1.5°C 19.7°F-6.8°C 67% Calm Calm -- 29.04 in983.4 mb 0.00 in0.0 mm 0.00 in/hr0.0 mm/hr 0.00 in0.0 mm
07:56 AM 29.3°F-1.5°C 19.7°F-6.8°C 67% Calm Calm -- 29.03 in983.1 mb 0.00 in0.0 mm 0.00 in/hr0.0 mm/hr 0.00 in0.0 mm
07:54 AM 29.2°F-1.6°C 19.6°F-6.9°C 67% Calm Calm -- 29.03 in983.1 mb 0.00 in0.0 mm 0.00 in/hr0.0 mm/hr 0.00 in0.0 mm
07:52 AM 29.1°F-1.6°C 19.9°F-6.7°C 68% Calm Calm -- 29.04 in983.4 mb 0.00 in0.0 mm 0.00 in/hr0.0 mm/hr 0.00 in0.0 mm
07:50 AM 29.0°F-1.7°C 19.8°F-6.8°C 68% Calm Calm -- 29.04 in983.4 mb 0.00 in0.0 mm 0.00 in/hr0.0 mm/hr 0.00 in0.0 mm
07:48 AM 28.9°F-1.7°C 19.3°F-7.1°C 67% Calm Calm -- 29.04 in983.4 mb 0.00 in0.0 mm 0.00 in/hr0.0 mm/hr 0.00 in0.0 mm
07:46 AM 28.8°F-1.8°C 19.2°F-7.1°C 67% Calm Calm -- 29.04 in983.4 mb 0.00 in0.0 mm 0.00 in/hr0.0 mm/hr 0.00 in0.0 mm
07:44 AM 28.8°F-1.8°C 19.2°F-7.1°C 67% Calm Calm -- 29.03 in983.1 mb 0.00 in0.0 mm 0.00 in/hr0.0 mm/hr 0.00 in0.0 mm
07:42 AM 28.7°F-1.8°C 19.1°F-7.2°C 67% Calm Calm -- 29.04 in983.4 mb 0.00 in0.0 mm 0.00 in/hr0.0 mm/hr 0.00 in0.0 mm
07:40 AM 28.6°F-1.9°C 19.1°F-7.2°C 67% Calm Calm -- 29.04 in983.4 mb 0.00 in0.0 mm 0.00 in/hr0.0 mm/hr 0.00 in0.0 mm
07:38 AM 28.6°F-1.9°C 19.1°F-7.2°C 67% Calm Calm -- 29.04 in983.4 mb 0.00 in0.0 mm 0.00 in/hr0.0 mm/hr 0.00 in0.0 mm
07:36 AM 28.5°F-1.9°C 19.0°F-7.2°C 67% Calm Calm -- 29.04 in983.4 mb 0.00 in0.0 mm 0.00 in/hr0.0 mm/hr 0.00 in0.0 mm
07:34 AM 28.4°F-2.0°C 18.9°F-7.3°C 67% Calm Calm -- 29.04 in983.4 mb 0.00 in0.0 mm 0.00 in/hr0.0 mm/hr 0.00 in0.0 mm
07:32 AM 28.3°F-2.1°C 18.8°F-7.3°C 67% Calm Calm -- 29.04 in983.4 mb 0.00 in0.0 mm 0.00 in/hr0.0 mm/hr 0.00 in0.0 mm
07:30 AM 28.3°F-2.1°C 18.8°F-7.3°C 67% Calm Calm -- 29.04 in983.4 mb 0.00 in0.0 mm 0.00 in/hr0.0 mm/hr 0.00 in0.0 mm
07:28 AM 28.2°F-2.1°C 18.7°F-7.4°C 67% Calm Calm -- 29.04 in983.4 mb 0.00 in0.0 mm 0.00 in/hr0.0 mm/hr 0.00 in0.0 mm
07:26 AM 28.2°F-2.1°C 19.0°F-7.2°C 68% Calm Calm -- 29.04 in983.4 mb 0.00 in0.0 mm 0.00 in/hr0.0 mm/hr 0.00 in0.0 mm
07:24 AM 28.1°F-2.2°C 18.9°F-7.3°C 68% Calm Calm -- 29.04 in983.4 mb 0.00 in0.0 mm 0.00 in/hr0.0 mm/hr 0.00 in0.0 mm
07:22 AM 28.1°F-2.2°C 18.9°F-7.3°C 68% Calm Calm -- 29.05 in983.7 mb 0.00 in0.0 mm 0.00 in/hr0.0 mm/hr 0.00 in0.0 mm
07:20 AM 28.0°F-2.2°C 18.8°F-7.3°C 68% Calm Calm -- 29.04 in983.4 mb 0.00 in0.0 mm 0.00 in/hr0.0 mm/hr 0.00 in0.0 mm
07:18 AM 28.0°F-2.2°C 18.5°F-7.5°C 67% Calm Calm -- 29.05 in983.7 mb 0.00 in0.0 mm 0.00 in/hr0.0 mm/hr 0.00 in0.0 mm
07:16 AM 27.9°F-2.3°C 18.4°F-7.6°C 67% Calm Calm -- 29.05 in983.7 mb 0.00 in0.0 mm 0.00 in/hr0.0 mm/hr 0.00 in0.0 mm
07:14 AM 27.9°F-2.3°C 18.4°F-7.6°C 67% Calm Calm -- 29.05 in983.7 mb 0.00 in0.0 mm 0.00 in/hr0.0 mm/hr 0.00 in0.0 mm
07:12 AM 27.8°F-2.3°C 18.3°F-7.6°C 67% Calm Calm -- 29.05 in983.7 mb 0.00 in0.0 mm 0.00 in/hr0.0 mm/hr 0.00 in0.0 mm
07:10 AM 27.8°F-2.3°C 18.6°F-7.4°C 68% Calm Calm -- 29.04 in983.4 mb 0.00 in0.0 mm 0.00 in/hr0.0 mm/hr 0.00 in0.0 mm
07:08 AM 27.7°F-2.4°C 18.2°F-7.7°C 67% Calm Calm -- 29.05 in983.7 mb 0.00 in0.0 mm 0.00 in/hr0.0 mm/hr 0.00 in0.0 mm
07:06 AM 27.7°F-2.4°C 18.5°F-7.5°C 68% Calm Calm -- 29.04 in983.4 mb 0.00 in0.0 mm 0.00 in/hr0.0 mm/hr 0.00 in0.0 mm
07:04 AM 27.6°F-2.4°C 18.1°F-7.7°C 67% Calm Calm -- 29.05 in983.7 mb 0.00 in0.0 mm 0.00 in/hr0.0 mm/hr 0.00 in0.0 mm
07:02 AM 27.6°F-2.4°C 18.1°F-7.7°C 67% Calm Calm -- 29.04 in983.4 mb 0.00 in0.0 mm 0.00 in/hr0.0 mm/hr 0.00 in0.0 mm
07:00 AM 27.5°F-2.5°C 18.0°F-7.8°C 67% Calm Calm -- 29.04 in983.4 mb 0.00 in0.0 mm 0.00 in/hr0.0 mm/hr 0.00 in0.0 mm
06:58 AM 27.5°F-2.5°C 18.0°F-7.8°C 67% Calm Calm -- 29.04 in983.4 mb 0.00 in0.0 mm 0.00 in/hr0.0 mm/hr 0.00 in0.0 mm
06:56 AM 27.4°F-2.6°C 17.9°F-7.8°C 67% Calm Calm -- 29.04 in983.4 mb 0.00 in0.0 mm 0.00 in/hr0.0 mm/hr 0.00 in0.0 mm
06:54 AM 27.4°F-2.6°C 18.2°F-7.7°C 68% Calm Calm -- 29.04 in983.4 mb 0.00 in0.0 mm 0.00 in/hr0.0 mm/hr 0.00 in0.0 mm
06:52 AM 27.3°F-2.6°C 18.2°F-7.7°C 68% Calm Calm -- 29.04 in983.4 mb 0.00 in0.0 mm 0.00 in/hr0.0 mm/hr 0.00 in0.0 mm
06:50 AM 27.2°F-2.7°C 17.7°F-7.9°C 67% Calm Calm -- 29.04 in983.4 mb 0.00 in0.0 mm 0.00 in/hr0.0 mm/hr 0.00 in0.0 mm
06:48 AM 27.2°F-2.7°C 17.7°F-7.9°C 67% Calm Calm -- 29.04 in983.4 mb 0.00 in0.0 mm 0.00 in/hr0.0 mm/hr 0.00 in0.0 mm
06:46 AM 27.1°F-2.7°C 17.6°F-8.0°C 67% Calm Calm -- 29.04 in983.4 mb 0.00 in0.0 mm 0.00 in/hr0.0 mm/hr 0.00 in0.0 mm
06:44 AM 27.1°F-2.7°C 17.6°F-8.0°C 67% Calm Calm -- 29.04 in983.4 mb 0.00 in0.0 mm 0.00 in/hr0.0 mm/hr 0.00 in0.0 mm
06:42 AM 27.0°F-2.8°C 17.5°F-8.1°C 67% Calm Calm -- 29.04 in983.4 mb 0.00 in0.0 mm 0.00 in/hr0.0 mm/hr 0.00 in0.0 mm
06:40 AM 26.9°F-2.8°C 17.4°F-8.1°C 67% Calm Calm -- 29.04 in983.4 mb 0.00 in0.0 mm 0.00 in/hr0.0 mm/hr 0.00 in0.0 mm
06:38 AM 26.9°F-2.8°C 17.8°F-7.9°C 68% Calm Calm -- 29.04 in983.4 mb 0.00 in0.0 mm 0.00 in/hr0.0 mm/hr 0.00 in0.0 mm
06:36 AM 26.8°F-2.9°C 17.7°F-7.9°C 68% Calm Calm -- 29.04 in983.4 mb 0.00 in0.0 mm 0.00 in/hr0.0 mm/hr 0.00 in0.0 mm
06:34 AM 26.8°F-2.9°C 17.3°F-8.2°C 67% Calm Calm -- 29.04 in983.4 mb 0.00 in0.0 mm 0.00 in/hr0.0 mm/hr 0.00 in0.0 mm
06:32 AM 26.7°F-2.9°C 17.2°F-8.2°C 67% Calm Calm -- 29.04 in983.4 mb 0.00 in0.0 mm 0.00 in/hr0.0 mm/hr 0.00 in0.0 mm
06:30 AM 26.6°F-3.0°C 17.1°F-8.3°C 67% Calm Calm -- 29.04 in983.4 mb 0.00 in0.0 mm 0.00 in/hr0.0 mm/hr 0.00 in0.0 mm
06:28 AM 26.6°F-3.0°C 17.1°F-8.3°C 67% Calm Calm -- 29.05 in983.7 mb 0.00 in0.0 mm 0.00 in/hr0.0 mm/hr 0.00 in0.0 mm
06:26 AM 26.5°F-3.1°C 17.0°F-8.3°C 67% Calm Calm -- 29.04 in983.4 mb 0.00 in0.0 mm 0.00 in/hr0.0 mm/hr 0.00 in0.0 mm
06:24 AM 26.4°F-3.1°C 16.9°F-8.4°C 67% Calm Calm -- 29.05 in983.7 mb 0.00 in0.0 mm 0.00 in/hr0.0 mm/hr 0.00 in0.0 mm
06:22 AM 26.4°F-3.1°C 16.9°F-8.4°C 67% Calm Calm -- 29.05 in983.7 mb 0.00 in0.0 mm 0.00 in/hr0.0 mm/hr 0.00 in0.0 mm
06:20 AM 26.3°F-3.2°C 16.5°F-8.6°C 66% Calm Calm -- 29.05 in983.7 mb 0.00 in0.0 mm 0.00 in/hr0.0 mm/hr 0.00 in0.0 mm
06:18 AM 26.3°F-3.2°C 16.9°F-8.4°C 67% Calm Calm -- 29.05 in983.7 mb 0.00 in0.0 mm 0.00 in/hr0.0 mm/hr 0.00 in0.0 mm
06:16 AM 26.2°F-3.2°C 16.8°F-8.4°C 67% Calm Calm -- 29.05 in983.7 mb 0.00 in0.0 mm 0.00 in/hr0.0 mm/hr 0.00 in0.0 mm
06:14 AM 26.2°F-3.2°C 16.4°F-8.7°C 66% Calm Calm -- 29.06 in984.1 mb 0.00 in0.0 mm 0.00 in/hr0.0 mm/hr 0.00 in0.0 mm
06:12 AM 26.1°F-3.3°C 16.3°F-8.7°C 66% Calm Calm -- 29.05 in983.7 mb 0.00 in0.0 mm 0.00 in/hr0.0 mm/hr 0.00 in0.0 mm
06:10 AM 26.1°F-3.3°C 16.3°F-8.7°C 66% Calm Calm -- 29.06 in984.1 mb 0.00 in0.0 mm 0.00 in/hr0.0 mm/hr 0.00 in0.0 mm
06:08 AM 26.0°F-3.3°C 16.2°F-8.8°C 66% Calm Calm -- 29.06 in984.1 mb 0.00 in0.0 mm 0.00 in/hr0.0 mm/hr 0.00 in0.0 mm
06:06 AM 26.0°F-3.3°C 16.2°F-8.8°C 66% Calm Calm -- 29.06 in984.1 mb 0.00 in0.0 mm 0.00 in/hr0.0 mm/hr 0.00 in0.0 mm
06:04 AM 25.9°F-3.4°C 16.1°F-8.8°C 66% Calm Calm -- 29.06 in984.1 mb 0.00 in0.0 mm 0.00 in/hr0.0 mm/hr 0.00 in0.0 mm
06:02 AM 25.9°F-3.4°C 16.1°F-8.8°C 66% Calm Calm -- 29.06 in984.1 mb 0.00 in0.0 mm 0.00 in/hr0.0 mm/hr 0.00 in0.0 mm
06:00 AM 25.9°F-3.4°C 16.1°F-8.8°C 66% Calm Calm -- 29.06 in984.1 mb 0.00 in0.0 mm 0.00 in/hr0.0 mm/hr 0.00 in0.0 mm
05:58 AM 25.8°F-3.4°C 16.0°F-8.9°C 66% Calm Calm -- 29.06 in984.1 mb 0.00 in0.0 mm 0.00 in/hr0.0 mm/hr 0.00 in0.0 mm
05:56 AM 25.8°F-3.4°C 15.7°F-9.1°C 65% Calm Calm -- 29.06 in984.1 mb 0.00 in0.0 mm 0.00 in/hr0.0 mm/hr 0.00 in0.0 mm
05:54 AM 25.8°F-3.4°C 15.7°F-9.1°C 65% Calm Calm -- 29.06 in984.1 mb 0.00 in0.0 mm 0.00 in/hr0.0 mm/hr 0.00 in0.0 mm
05:52 AM 25.8°F-3.4°C 15.7°F-9.1°C 65% Calm Calm -- 29.06 in984.1 mb 0.00 in0.0 mm 0.00 in/hr0.0 mm/hr 0.00 in0.0 mm
05:50 AM 25.8°F-3.4°C 15.7°F-9.1°C 65% Calm Calm -- 29.06 in984.1 mb 0.00 in0.0 mm 0.00 in/hr0.0 mm/hr 0.00 in0.0 mm
05:48 AM 25.8°F-3.4°C 15.7°F-9.1°C 65% Calm Calm -- 29.06 in984.1 mb 0.00 in0.0 mm 0.00 in/hr0.0 mm/hr 0.00 in0.0 mm
05:46 AM 25.8°F-3.4°C 15.7°F-9.1°C 65% Calm Calm -- 29.06 in984.1 mb 0.00 in0.0 mm 0.00 in/hr0.0 mm/hr 0.00 in0.0 mm
05:44 AM 25.8°F-3.4°C 15.7°F-9.1°C 65% Calm Calm -- 29.06 in984.1 mb 0.00 in0.0 mm 0.00 in/hr0.0 mm/hr 0.00 in0.0 mm
05:42 AM 25.8°F-3.4°C 15.3°F-9.3°C 64% Calm Calm -- 29.06 in984.1 mb 0.00 in0.0 mm 0.00 in/hr0.0 mm/hr 0.00 in0.0 mm
05:40 AM 25.8°F-3.4°C 15.7°F-9.1°C 65% Calm Calm -- 29.06 in984.1 mb 0.00 in0.0 mm 0.00 in/hr0.0 mm/hr 0.00 in0.0 mm
05:38 AM 25.8°F-3.4°C 15.3°F-9.3°C 64% Calm Calm -- 29.06 in984.1 mb 0.00 in0.0 mm 0.00 in/hr0.0 mm/hr 0.00 in0.0 mm
05:36 AM 25.8°F-3.4°C 15.7°F-9.1°C 65% Calm Calm -- 29.06 in984.1 mb 0.00 in0.0 mm 0.00 in/hr0.0 mm/hr 0.00 in0.0 mm
05:34 AM 25.8°F-3.4°C 15.7°F-9.1°C 65% Calm Calm -- 29.06 in984.1 mb 0.00 in0.0 mm 0.00 in/hr0.0 mm/hr 0.00 in0.0 mm
05:32 AM 25.8°F-3.4°C 15.7°F-9.1°C 65% Calm Calm -- 29.06 in984.1 mb 0.00 in0.0 mm 0.00 in/hr0.0 mm/hr 0.00 in0.0 mm
05:30 AM 25.8°F-3.4°C 15.7°F-9.1°C 65% Calm Calm -- 29.06 in984.1 mb 0.00 in0.0 mm 0.00 in/hr0.0 mm/hr 0.00 in0.0 mm
05:28 AM 25.8°F-3.4°C 15.7°F-9.1°C 65% Calm Calm -- 29.06 in984.1 mb 0.00 in0.0 mm 0.00 in/hr0.0 mm/hr 0.00 in0.0 mm
05:26 AM 25.8°F-3.4°C 15.3°F-9.3°C 64% Calm Calm -- 29.07 in984.4 mb 0.00 in0.0 mm 0.00 in/hr0.0 mm/hr 0.00 in0.0 mm
05:24 AM 25.9°F-3.4°C 15.4°F-9.2°C 64% Calm Calm -- 29.07 in984.4 mb 0.00 in0.0 mm 0.00 in/hr0.0 mm/hr 0.00 in0.0 mm
05:22 AM 25.9°F-3.4°C 15.8°F-9.0°C 65% Calm Calm -- 29.06 in984.1 mb 0.00 in0.0 mm 0.00 in/hr0.0 mm/hr 0.00 in0.0 mm
05:20 AM 25.9°F-3.4°C 15.8°F-9.0°C 65% Calm Calm -- 29.06 in984.1 mb 0.00 in0.0 mm 0.00 in/hr0.0 mm/hr 0.00 in0.0 mm
05:18 AM 26.0°F-3.3°C 15.9°F-8.9°C 65% Calm Calm -- 29.06 in984.1 mb 0.00 in0.0 mm 0.00 in/hr0.0 mm/hr 0.00 in0.0 mm
05:16 AM 26.0°F-3.3°C 15.9°F-8.9°C 65% Calm Calm -- 29.06 in984.1 mb 0.00 in0.0 mm 0.00 in/hr0.0 mm/hr 0.00 in0.0 mm
05:14 AM 26.0°F-3.3°C 15.9°F-8.9°C 65% Calm Calm -- 29.06 in984.1 mb 0.00 in0.0 mm 0.00 in/hr0.0 mm/hr 0.00 in0.0 mm
05:12 AM 26.0°F-3.3°C 15.9°F-8.9°C 65% Calm Calm -- 29.06 in984.1 mb 0.00 in0.0 mm 0.00 in/hr0.0 mm/hr 0.00 in0.0 mm
05:10 AM 26.0°F-3.3°C 15.9°F-8.9°C 65% Calm Calm -- 29.06 in984.1 mb 0.00 in0.0 mm 0.00 in/hr0.0 mm/hr 0.00 in0.0 mm
05:08 AM 26.0°F-3.3°C 15.9°F-8.9°C 65% Calm Calm -- 29.06 in984.1 mb 0.00 in0.0 mm 0.00 in/hr0.0 mm/hr 0.00 in0.0 mm
05:06 AM 26.0°F-3.3°C 15.9°F-8.9°C 65% Calm Calm -- 29.07 in984.4 mb 0.00 in0.0 mm 0.00 in/hr0.0 mm/hr 0.00 in0.0 mm
05:04 AM 26.1°F-3.3°C 16.0°F-8.9°C 65% Calm Calm -- 29.07 in984.4 mb 0.00 in0.0 mm 0.00 in/hr0.0 mm/hr 0.00 in0.0 mm
05:02 AM 26.1°F-3.3°C 15.6°F-9.1°C 64% Calm Calm -- 29.07 in984.4 mb 0.00 in0.0 mm 0.00 in/hr0.0 mm/hr 0.00 in0.0 mm
05:00 AM 26.1°F-3.3°C 15.6°F-9.1°C 64% Calm Calm -- 29.07 in984.4 mb 0.00 in0.0 mm 0.00 in/hr0.0 mm/hr 0.00 in0.0 mm
04:58 AM 26.1°F-3.3°C 16.0°F-8.9°C 65% Calm Calm -- 29.07 in984.4 mb 0.00 in0.0 mm 0.00 in/hr0.0 mm/hr 0.00 in0.0 mm
04:56 AM 26.1°F-3.3°C 16.0°F-8.9°C 65% Calm Calm -- 29.07 in984.4 mb 0.00 in0.0 mm 0.00 in/hr0.0 mm/hr 0.00 in0.0 mm
04:54 AM 26.1°F-3.3°C 16.0°F-8.9°C 65% Calm Calm -- 29.08 in984.8 mb 0.00 in0.0 mm 0.00 in/hr0.0 mm/hr 0.00 in0.0 mm
04:52 AM 26.2°F-3.2°C 16.1°F-8.8°C 65% Calm Calm -- 29.08 in984.8 mb 0.00 in0.0 mm 0.00 in/hr0.0 mm/hr 0.00 in0.0 mm
04:50 AM 26.2°F-3.2°C 15.7°F-9.1°C 64% Calm Calm -- 29.08 in984.8 mb 0.00 in0.0 mm 0.00 in/hr0.0 mm/hr 0.00 in0.0 mm
04:48 AM 26.3°F-3.2°C 15.8°F-9.0°C 64% Calm Calm -- 29.08 in984.8 mb 0.00 in0.0 mm 0.00 in/hr0.0 mm/hr 0.00 in0.0 mm
04:46 AM 26.3°F-3.2°C 15.8°F-9.0°C 64% Calm Calm -- 29.08 in984.8 mb 0.00 in0.0 mm 0.00 in/hr0.0 mm/hr 0.00 in0.0 mm
04:44 AM 26.3°F-3.2°C 16.2°F-8.8°C 65% Calm Calm -- 29.08 in984.8 mb 0.00 in0.0 mm 0.00 in/hr0.0 mm/hr 0.00 in0.0 mm
04:42 AM 26.3°F-3.2°C 16.2°F-8.8°C 65% Calm Calm -- 29.08 in984.8 mb 0.00 in0.0 mm 0.00 in/hr0.0 mm/hr 0.00 in0.0 mm
04:40 AM 26.3°F-3.2°C 16.2°F-8.8°C 65% Calm Calm -- 29.09 in985.1 mb 0.00 in0.0 mm 0.00 in/hr0.0 mm/hr 0.00 in0.0 mm
04:38 AM 26.3°F-3.2°C 16.2°F-8.8°C 65% Calm Calm -- 29.08 in984.8 mb 0.00 in0.0 mm 0.00 in/hr0.0 mm/hr 0.00 in0.0 mm
04:36 AM 26.3°F-3.2°C 16.2°F-8.8°C 65% Calm Calm -- 29.09 in985.1 mb 0.00 in0.0 mm 0.00 in/hr0.0 mm/hr 0.00 in0.0 mm
04:34 AM 26.3°F-3.2°C 16.2°F-8.8°C 65% Calm Calm -- 29.09 in985.1 mb 0.00 in0.0 mm 0.00 in/hr0.0 mm/hr 0.00 in0.0 mm
04:32 AM 26.4°F-3.1°C 16.3°F-8.7°C 65% Calm Calm -- 29.09 in985.1 mb 0.00 in0.0 mm 0.00 in/hr0.0 mm/hr 0.00 in0.0 mm
04:30 AM 26.4°F-3.1°C 16.3°F-8.7°C 65% Calm Calm -- 29.09 in985.1 mb 0.00 in0.0 mm 0.00 in/hr0.0 mm/hr 0.00 in0.0 mm
04:28 AM 26.3°F-3.2°C 16.2°F-8.8°C 65% Calm Calm -- 29.09 in985.1 mb 0.00 in0.0 mm 0.00 in/hr0.0 mm/hr 0.00 in0.0 mm
04:26 AM 26.3°F-3.2°C 16.2°F-8.8°C 65% Calm Calm -- 29.09 in985.1 mb 0.00 in0.0 mm 0.00 in/hr0.0 mm/hr 0.00 in0.0 mm
04:24 AM 26.3°F-3.2°C 16.2°F-8.8°C 65% Calm Calm -- 29.09 in985.1 mb 0.00 in0.0 mm 0.00 in/hr0.0 mm/hr 0.00 in0.0 mm
04:22 AM 26.3°F-3.2°C 16.2°F-8.8°C 65% Calm Calm -- 29.10 in985.4 mb 0.00 in0.0 mm 0.00 in/hr0.0 mm/hr 0.00 in0.0 mm
04:20 AM 26.3°F-3.2°C 16.5°F-8.6°C 66% Calm Calm -- 29.10 in985.4 mb 0.00 in0.0 mm 0.00 in/hr0.0 mm/hr 0.00 in0.0 mm
04:18 AM 26.3°F-3.2°C 16.2°F-8.8°C 65% Calm Calm -- 29.10 in985.4 mb 0.00 in0.0 mm 0.00 in/hr0.0 mm/hr 0.00 in0.0 mm
04:16 AM 26.3°F-3.2°C 16.2°F-8.8°C 65% Calm Calm -- 29.10 in985.4 mb 0.00 in0.0 mm 0.00 in/hr0.0 mm/hr 0.00 in0.0 mm
04:14 AM 26.3°F-3.2°C 16.2°F-8.8°C 65% Calm Calm -- 29.10 in985.4 mb 0.00 in0.0 mm 0.00 in/hr0.0 mm/hr 0.00 in0.0 mm
04:12 AM 26.3°F-3.2°C 16.2°F-8.8°C 65% Calm Calm -- 29.10 in985.4 mb 0.00 in0.0 mm 0.00 in/hr0.0 mm/hr 0.00 in0.0 mm
04:10 AM 26.3°F-3.2°C 16.2°F-8.8°C 65% Calm Calm -- 29.10 in985.4 mb 0.00 in0.0 mm 0.00 in/hr0.0 mm/hr 0.00 in0.0 mm
04:08 AM 26.3°F-3.2°C 16.2°F-8.8°C 65% Calm Calm -- 29.10 in985.4 mb 0.00 in0.0 mm 0.00 in/hr0.0 mm/hr 0.00 in0.0 mm
04:06 AM 26.3°F-3.2°C 15.8°F-9.0°C 64% Calm Calm -- 29.10 in985.4 mb 0.00 in0.0 mm 0.00 in/hr0.0 mm/hr 0.00 in0.0 mm
04:04 AM 26.3°F-3.2°C 15.8°F-9.0°C 64% Calm Calm -- 29.10 in985.4 mb 0.00 in0.0 mm 0.00 in/hr0.0 mm/hr 0.00 in0.0 mm
04:02 AM 26.3°F-3.2°C 15.8°F-9.0°C 64% Calm Calm -- 29.10 in985.4 mb 0.00 in0.0 mm 0.00 in/hr0.0 mm/hr 0.00 in0.0 mm
04:00 AM 26.3°F-3.2°C 15.8°F-9.0°C 64% Calm Calm -- 29.09 in985.1 mb 0.00 in0.0 mm 0.00 in/hr0.0 mm/hr 0.00 in0.0 mm
03:58 AM 26.4°F-3.1°C 15.9°F-8.9°C 64% Calm Calm -- 29.10 in985.4 mb 0.00 in0.0 mm 0.00 in/hr0.0 mm/hr 0.00 in0.0 mm
03:56 AM 26.4°F-3.1°C 15.9°F-8.9°C 64% Calm Calm -- 29.10 in985.4 mb 0.00 in0.0 mm 0.00 in/hr0.0 mm/hr 0.00 in0.0 mm
03:54 AM 26.5°F-3.1°C 16.0°F-8.9°C 64% Calm Calm -- 29.10 in985.4 mb 0.00 in0.0 mm 0.00 in/hr0.0 mm/hr 0.00 in0.0 mm
03:52 AM 26.5°F-3.1°C 16.0°F-8.9°C 64% Calm Calm -- 29.10 in985.4 mb 0.00 in0.0 mm 0.00 in/hr0.0 mm/hr 0.00 in0.0 mm
03:50 AM 26.5°F-3.1°C 16.0°F-8.9°C 64% Calm Calm -- 29.10 in985.4 mb 0.00 in0.0 mm 0.00 in/hr0.0 mm/hr 0.00 in0.0 mm
03:48 AM 26.5°F-3.1°C 16.0°F-8.9°C 64% Calm Calm -- 29.10 in985.4 mb 0.00 in0.0 mm 0.00 in/hr0.0 mm/hr 0.00 in0.0 mm
03:46 AM 26.6°F-3.0°C 16.4°F-8.7°C 65% Calm Calm -- 29.10 in985.4 mb 0.00 in0.0 mm 0.00 in/hr0.0 mm/hr 0.00 in0.0 mm
03:44 AM 26.6°F-3.0°C 16.4°F-8.7°C 65% Calm Calm -- 29.10 in985.4 mb 0.00 in0.0 mm 0.00 in/hr0.0 mm/hr 0.00 in0.0 mm
03:42 AM 26.6°F-3.0°C 16.1°F-8.8°C 64% Calm Calm -- 29.10 in985.4 mb 0.00 in0.0 mm 0.00 in/hr0.0 mm/hr 0.00 in0.0 mm
03:40 AM 26.7°F-2.9°C 16.2°F-8.8°C 64% Calm Calm -- 29.10 in985.4 mb 0.00 in0.0 mm 0.00 in/hr0.0 mm/hr 0.00 in0.0 mm
03:38 AM 26.7°F-2.9°C 16.2°F-8.8°C 64% Calm Calm -- 29.10 in985.4 mb 0.00 in0.0 mm 0.00 in/hr0.0 mm/hr 0.00 in0.0 mm
03:36 AM 26.7°F-2.9°C 16.5°F-8.6°C 65% Calm Calm -- 29.10 in985.4 mb 0.00 in0.0 mm 0.00 in/hr0.0 mm/hr 0.00 in0.0 mm
03:34 AM 26.7°F-2.9°C 16.5°F-8.6°C 65% Calm Calm -- 29.10 in985.4 mb 0.00 in0.0 mm 0.00 in/hr0.0 mm/hr 0.00 in0.0 mm
03:32 AM 26.7°F-2.9°C 16.5°F-8.6°C 65% Calm Calm -- 29.10 in985.4 mb 0.00 in0.0 mm 0.00 in/hr0.0 mm/hr 0.00 in0.0 mm
03:30 AM 26.7°F-2.9°C 16.2°F-8.8°C 64% Calm Calm -- 29.10 in985.4 mb 0.00 in0.0 mm 0.00 in/hr0.0 mm/hr 0.00 in0.0 mm
03:28 AM 26.8°F-2.9°C 16.6°F-8.6°C 65% Calm Calm -- 29.10 in985.4 mb 0.00 in0.0 mm 0.00 in/hr0.0 mm/hr 0.00 in0.0 mm
03:26 AM 26.8°F-2.9°C 16.3°F-8.7°C 64% Calm Calm -- 29.10 in985.4 mb 0.00 in0.0 mm 0.00 in/hr0.0 mm/hr 0.00 in0.0 mm
03:24 AM 26.9°F-2.8°C 16.4°F-8.7°C 64% Calm Calm -- 29.10 in985.4 mb 0.00 in0.0 mm 0.00 in/hr0.0 mm/hr 0.00 in0.0 mm
03:22 AM 26.9°F-2.8°C 16.4°F-8.7°C 64% Calm Calm -- 29.10 in985.4 mb 0.00 in0.0 mm 0.00 in/hr0.0 mm/hr 0.00 in0.0 mm
03:20 AM 26.9°F-2.8°C 16.4°F-8.7°C 64% Calm Calm -- 29.10 in985.4 mb 0.00 in0.0 mm 0.00 in/hr0.0 mm/hr 0.00 in0.0 mm
03:18 AM 26.9°F-2.8°C 16.7°F-8.5°C 65% Calm Calm -- 29.10 in985.4 mb 0.00 in0.0 mm 0.00 in/hr0.0 mm/hr 0.00 in0.0 mm
03:16 AM 26.9°F-2.8°C 16.7°F-8.5°C 65% Calm Calm -- 29.10 in985.4 mb 0.00 in0.0 mm 0.00 in/hr0.0 mm/hr 0.00 in0.0 mm
03:14 AM 26.9°F-2.8°C 16.4°F-8.7°C 64% Calm Calm -- 29.11 in985.8 mb 0.00 in0.0 mm 0.00 in/hr0.0 mm/hr 0.00 in0.0 mm
03:12 AM 26.9°F-2.8°C 16.4°F-8.7°C 64% Calm Calm -- 29.11 in985.8 mb 0.00 in0.0 mm 0.00 in/hr0.0 mm/hr 0.00 in0.0 mm
03:10 AM 27.0°F-2.8°C 16.5°F-8.6°C 64% Calm Calm -- 29.11 in985.8 mb 0.00 in0.0 mm 0.00 in/hr0.0 mm/hr 0.00 in0.0 mm
03:08 AM 27.0°F-2.8°C 16.8°F-8.4°C 65% Calm Calm -- 29.11 in985.8 mb 0.00 in0.0 mm 0.00 in/hr0.0 mm/hr 0.00 in0.0 mm
03:06 AM 27.0°F-2.8°C 16.5°F-8.6°C 64% Calm Calm -- 29.11 in985.8 mb 0.00 in0.0 mm 0.00 in/hr0.0 mm/hr 0.00 in0.0 mm
03:04 AM 27.1°F-2.7°C 16.6°F-8.6°C 64% Calm Calm -- 29.11 in985.8 mb 0.00 in0.0 mm 0.00 in/hr0.0 mm/hr 0.00 in0.0 mm
03:02 AM 27.1°F-2.7°C 16.6°F-8.6°C 64% Calm Calm -- 29.11 in985.8 mb 0.00 in0.0 mm 0.00 in/hr0.0 mm/hr 0.00 in0.0 mm
03:00 AM 27.1°F-2.7°C 16.6°F-8.6°C 64% Calm Calm -- 29.11 in985.8 mb 0.00 in0.0 mm 0.00 in/hr0.0 mm/hr 0.00 in0.0 mm
02:58 AM 27.1°F-2.7°C 16.6°F-8.6°C 64% Calm Calm -- 29.11 in985.8 mb 0.00 in0.0 mm 0.00 in/hr0.0 mm/hr 0.00 in0.0 mm
02:56 AM 27.1°F-2.7°C 16.6°F-8.6°C 64% Calm Calm -- 29.11 in985.8 mb 0.00 in0.0 mm 0.00 in/hr0.0 mm/hr 0.00 in0.0 mm
02:54 AM 27.1°F-2.7°C 16.6°F-8.6°C 64% Calm Calm -- 29.11 in985.8 mb 0.00 in0.0 mm 0.00 in/hr0.0 mm/hr 0.00 in0.0 mm
02:52 AM 27.1°F-2.7°C 16.6°F-8.6°C 64% Calm Calm -- 29.11 in985.8 mb 0.00 in0.0 mm 0.00 in/hr0.0 mm/hr 0.00 in0.0 mm
02:50 AM 27.0°F-2.8°C 16.5°F-8.6°C 64% Calm Calm -- 29.11 in985.8 mb 0.00 in0.0 mm 0.00 in/hr0.0 mm/hr 0.00 in0.0 mm
02:48 AM 27.0°F-2.8°C 16.5°F-8.6°C 64% Calm Calm -- 29.11 in985.8 mb 0.00 in0.0 mm 0.00 in/hr0.0 mm/hr 0.00 in0.0 mm
02:46 AM 27.0°F-2.8°C 16.5°F-8.6°C 64% Calm Calm -- 29.11 in985.8 mb 0.00 in0.0 mm 0.00 in/hr0.0 mm/hr 0.00 in0.0 mm
02:44 AM 27.0°F-2.8°C 16.5°F-8.6°C 64% Calm Calm -- 29.11 in985.8 mb 0.00 in0.0 mm 0.00 in/hr0.0 mm/hr 0.00 in0.0 mm
02:42 AM 27.0°F-2.8°C 16.5°F-8.6°C 64% Calm Calm -- 29.12 in986.1 mb 0.00 in0.0 mm 0.00 in/hr0.0 mm/hr 0.00 in0.0 mm
02:40 AM 27.0°F-2.8°C 16.5°F-8.6°C 64% Calm Calm -- 29.12 in986.1 mb 0.00 in0.0 mm 0.00 in/hr0.0 mm/hr 0.00 in0.0 mm
02:38 AM 27.0°F-2.8°C 16.8°F-8.4°C 65% Calm Calm -- 29.12 in986.1 mb 0.00 in0.0 mm 0.00 in/hr0.0 mm/hr 0.00 in0.0 mm
02:36 AM 27.0°F-2.8°C 16.5°F-8.6°C 64% Calm Calm -- 29.12 in986.1 mb 0.00 in0.0 mm 0.00 in/hr0.0 mm/hr 0.00 in0.0 mm
02:34 AM 27.0°F-2.8°C 16.5°F-8.6°C 64% Calm Calm -- 29.11 in985.8 mb 0.00 in0.0 mm 0.00 in/hr0.0 mm/hr 0.00 in0.0 mm
02:32 AM 27.0°F-2.8°C 16.5°F-8.6°C 64% Calm Calm -- 29.11 in985.8 mb 0.00 in0.0 mm 0.00 in/hr0.0 mm/hr 0.00 in0.0 mm
02:30 AM 27.0°F-2.8°C 16.5°F-8.6°C 64% Calm Calm -- 29.11 in985.8 mb 0.00 in0.0 mm 0.00 in/hr0.0 mm/hr 0.00 in0.0 mm
02:28 AM 27.0°F-2.8°C 16.5°F-8.6°C 64% Calm Calm -- 29.11 in985.8 mb 0.00 in0.0 mm 0.00 in/hr0.0 mm/hr 0.00 in0.0 mm
02:26 AM 27.0°F-2.8°C 16.5°F-8.6°C 64% Calm Calm -- 29.11 in985.8 mb 0.00 in0.0 mm 0.00 in/hr0.0 mm/hr 0.00 in0.0 mm
02:24 AM 26.9°F-2.8°C 16.4°F-8.7°C 64% Calm Calm -- 29.11 in985.8 mb 0.00 in0.0 mm 0.00 in/hr0.0 mm/hr 0.00 in0.0 mm
02:22 AM 26.9°F-2.8°C 16.4°F-8.7°C 64% Calm Calm -- 29.11 in985.8 mb 0.00 in0.0 mm 0.00 in/hr0.0 mm/hr 0.00 in0.0 mm
02:20 AM 26.9°F-2.8°C 16.4°F-8.7°C 64% Calm Calm -- 29.11 in985.8 mb 0.00 in0.0 mm 0.00 in/hr0.0 mm/hr 0.00 in0.0 mm
02:18 AM 26.9°F-2.8°C 16.4°F-8.7°C 64% Calm Calm -- 29.11 in985.8 mb 0.00 in0.0 mm 0.00 in/hr0.0 mm/hr 0.00 in0.0 mm
02:16 AM 26.9°F-2.8°C 16.4°F-8.7°C 64% Calm Calm -- 29.11 in985.8 mb 0.00 in0.0 mm 0.00 in/hr0.0 mm/hr 0.00 in0.0 mm
02:14 AM 27.0°F-2.8°C 16.5°F-8.6°C 64% Calm Calm -- 29.11 in985.8 mb 0.00 in0.0 mm 0.00 in/hr0.0 mm/hr 0.00 in0.0 mm
02:12 AM 26.9°F-2.8°C 16.4°F-8.7°C 64% Calm Calm -- 29.11 in985.8 mb 0.00 in0.0 mm 0.00 in/hr0.0 mm/hr 0.00 in0.0 mm
02:10 AM 26.9°F-2.8°C 16.4°F-8.7°C 64% Calm Calm -- 29.11 in985.8 mb 0.00 in0.0 mm 0.00 in/hr0.0 mm/hr 0.00 in0.0 mm
02:08 AM 26.9°F-2.8°C 16.4°F-8.7°C 64% Calm Calm -- 29.12 in986.1 mb 0.00 in0.0 mm 0.00 in/hr0.0 mm/hr 0.00 in0.0 mm
02:06 AM 26.9°F-2.8°C 16.4°F-8.7°C 64% Calm Calm -- 29.11 in985.8 mb 0.00 in0.0 mm 0.00 in/hr0.0 mm/hr 0.00 in0.0 mm
02:04 AM 26.9°F-2.8°C 16.4°F-8.7°C 64% Calm Calm -- 29.12 in986.1 mb 0.00 in0.0 mm 0.00 in/hr0.0 mm/hr 0.00 in0.0 mm
02:02 AM 26.9°F-2.8°C 16.4°F-8.7°C 64% Calm Calm -- 29.12 in986.1 mb 0.00 in0.0 mm 0.00 in/hr0.0 mm/hr 0.00 in0.0 mm
02:00 AM 26.9°F-2.8°C 16.7°F-8.5°C 65% Calm Calm -- 29.12 in986.1 mb 0.00 in0.0 mm 0.00 in/hr0.0 mm/hr 0.00 in0.0 mm
01:58 AM 26.9°F-2.8°C 16.7°F-8.5°C 65% Calm Calm -- 29.12 in986.1 mb 0.00 in0.0 mm 0.00 in/hr0.0 mm/hr 0.00 in0.0 mm
01:56 AM 26.9°F-2.8°C 16.7°F-8.5°C 65% Calm Calm -- 29.12 in986.1 mb 0.00 in0.0 mm 0.00 in/hr0.0 mm/hr 0.00 in0.0 mm
01:54 AM 26.8°F-2.9°C 16.3°F-8.7°C 64% Calm Calm -- 29.12 in986.1 mb 0.00 in0.0 mm 0.00 in/hr0.0 mm/hr 0.00 in0.0 mm
01:52 AM 26.8°F-2.9°C 16.3°F-8.7°C 64% Calm Calm -- 29.12 in986.1 mb 0.00 in0.0 mm 0.00 in/hr0.0 mm/hr 0.00 in0.0 mm
01:50 AM 26.8°F-2.9°C 16.6°F-8.6°C 65% Calm Calm -- 29.12 in986.1 mb 0.00 in0.0 mm 0.00 in/hr0.0 mm/hr 0.00 in0.0 mm
01:48 AM 26.8°F-2.9°C 16.3°F-8.7°C 64% Calm Calm -- 29.12 in986.1 mb 0.00 in0.0 mm 0.00 in/hr0.0 mm/hr 0.00 in0.0 mm
01:46 AM 26.7°F-2.9°C 16.2°F-8.8°C 64% Calm Calm -- 29.12 in986.1 mb 0.00 in0.0 mm 0.00 in/hr0.0 mm/hr 0.00 in0.0 mm
01:44 AM 26.7°F-2.9°C 16.2°F-8.8°C 64% Calm Calm -- 29.12 in986.1 mb 0.00 in0.0 mm 0.00 in/hr0.0 mm/hr 0.00 in0.0 mm
01:42 AM 26.6°F-3.0°C 16.1°F-8.8°C 64% Calm Calm -- 29.12 in986.1 mb 0.00 in0.0 mm 0.00 in/hr0.0 mm/hr 0.00 in0.0 mm
01:40 AM 26.6°F-3.0°C 16.1°F-8.8°C 64% Calm Calm -- 29.12 in986.1 mb 0.00 in0.0 mm 0.00 in/hr0.0 mm/hr 0.00 in0.0 mm
01:38 AM 26.6°F-3.0°C 16.1°F-8.8°C 64% Calm Calm -- 29.12 in986.1 mb 0.00 in0.0 mm 0.00 in/hr0.0 mm/hr 0.00 in0.0 mm
01:36 AM 26.5°F-3.1°C 16.0°F-8.9°C 64% Calm Calm -- 29.13 in986.5 mb 0.00 in0.0 mm 0.00 in/hr0.0 mm/hr 0.00 in0.0 mm
01:34 AM 26.5°F-3.1°C 16.0°F-8.9°C 64% Calm Calm -- 29.12 in986.1 mb 0.00 in0.0 mm 0.00 in/hr0.0 mm/hr 0.00 in0.0 mm
01:32 AM 26.5°F-3.1°C 16.0°F-8.9°C 64% Calm Calm -- 29.13 in986.5 mb 0.00 in0.0 mm 0.00 in/hr0.0 mm/hr 0.00 in0.0 mm
01:30 AM 26.5°F-3.1°C 16.0°F-8.9°C 64% Calm Calm -- 29.13 in986.5 mb 0.00 in0.0 mm 0.00 in/hr0.0 mm/hr 0.00 in0.0 mm
01:28 AM 26.5°F-3.1°C 16.0°F-8.9°C 64% Calm Calm -- 29.13 in986.5 mb 0.00 in0.0 mm 0.00 in/hr0.0 mm/hr 0.00 in0.0 mm
01:26 AM 26.5°F-3.1°C 15.6°F-9.1°C 63% Calm Calm -- 29.13 in986.5 mb 0.00 in0.0 mm 0.00 in/hr0.0 mm/hr 0.00 in0.0 mm
01:24 AM 26.4°F-3.1°C 15.5°F-9.2°C 63% Calm Calm -- 29.13 in986.5 mb 0.00 in0.0 mm 0.00 in/hr0.0 mm/hr 0.00 in0.0 mm
01:22 AM 26.4°F-3.1°C 15.5°F-9.2°C 63% Calm Calm -- 29.13 in986.5 mb 0.00 in0.0 mm 0.00 in/hr0.0 mm/hr 0.00 in0.0 mm
01:20 AM 26.5°F-3.1°C 15.6°F-9.1°C 63% Calm Calm -- 29.13 in986.5 mb 0.00 in0.0 mm 0.00 in/hr0.0 mm/hr 0.00 in0.0 mm
01:18 AM 26.5°F-3.1°C 15.6°F-9.1°C 63% Calm Calm -- 29.13 in986.5 mb 0.00 in0.0 mm 0.00 in/hr0.0 mm/hr 0.00 in0.0 mm
01:16 AM 26.5°F-3.1°C 15.6°F-9.1°C 63% Calm Calm -- 29.13 in986.5 mb 0.00 in0.0 mm 0.00 in/hr0.0 mm/hr 0.00 in0.0 mm
01:14 AM 26.5°F-3.1°C 15.6°F-9.1°C 63% Calm Calm -- 29.13 in986.5 mb 0.00 in0.0 mm 0.00 in/hr0.0 mm/hr 0.00 in0.0 mm
01:12 AM 26.5°F-3.1°C 15.6°F-9.1°C 63% Calm Calm -- 29.13 in986.5 mb 0.00 in0.0 mm 0.00 in/hr0.0 mm/hr 0.00 in0.0 mm
01:10 AM 26.5°F-3.1°C 15.6°F-9.1°C 63% Calm Calm -- 29.13 in986.5 mb 0.00 in0.0 mm 0.00 in/hr0.0 mm/hr 0.00 in0.0 mm
01:08 AM 26.5°F-3.1°C 15.6°F-9.1°C 63% Calm Calm -- 29.13 in986.5 mb 0.00 in0.0 mm 0.00 in/hr0.0 mm/hr 0.00 in0.0 mm
01:06 AM 26.5°F-3.1°C 15.6°F-9.1°C 63% Calm Calm -- 29.13 in986.5 mb 0.00 in0.0 mm 0.00 in/hr0.0 mm/hr 0.00 in0.0 mm
01:04 AM 26.5°F-3.1°C 15.6°F-9.1°C 63% Calm Calm -- 29.13 in986.5 mb 0.00 in0.0 mm 0.00 in/hr0.0 mm/hr 0.00 in0.0 mm
01:02 AM 26.6°F-3.0°C 15.7°F-9.1°C 63% Calm Calm -- 29.13 in986.5 mb 0.00 in0.0 mm 0.00 in/hr0.0 mm/hr 0.00 in0.0 mm
01:00 AM 26.6°F-3.0°C 15.7°F-9.1°C 63% Calm Calm -- 29.13 in986.5 mb 0.00 in0.0 mm 0.00 in/hr0.0 mm/hr 0.00 in0.0 mm
12:58 AM 26.6°F-3.0°C 15.7°F-9.1°C 63% Calm Calm -- 29.13 in986.5 mb 0.00 in0.0 mm 0.00 in/hr0.0 mm/hr 0.00 in0.0 mm
12:56 AM 26.7°F-2.9°C 15.8°F-9.0°C 63% Calm Calm -- 29.14 in986.8 mb 0.00 in0.0 mm 0.00 in/hr0.0 mm/hr 0.00 in0.0 mm
12:54 AM 26.7°F-2.9°C 15.8°F-9.0°C 63% Calm Calm -- 29.14 in986.8 mb 0.00 in0.0 mm 0.00 in/hr0.0 mm/hr 0.00 in0.0 mm
12:52 AM 26.8°F-2.9°C 15.9°F-8.9°C 63% Calm Calm -- 29.14 in986.8 mb 0.00 in0.0 mm 0.00 in/hr0.0 mm/hr 0.00 in0.0 mm
12:50 AM 26.8°F-2.9°C 15.9°F-8.9°C 63% Calm Calm -- 29.14 in986.8 mb 0.00 in0.0 mm 0.00 in/hr0.0 mm/hr 0.00 in0.0 mm
12:48 AM 26.8°F-2.9°C 15.9°F-8.9°C 63% Calm Calm -- 29.14 in986.8 mb 0.00 in0.0 mm 0.00 in/hr0.0 mm/hr 0.00 in0.0 mm
12:46 AM 26.8°F-2.9°C 15.9°F-8.9°C 63% Calm Calm -- 29.14 in986.8 mb 0.00 in0.0 mm 0.00 in/hr0.0 mm/hr 0.00 in0.0 mm
12:44 AM 26.8°F-2.9°C 15.9°F-8.9°C 63% Calm Calm -- 29.14 in986.8 mb 0.00 in0.0 mm 0.00 in/hr0.0 mm/hr 0.00 in0.0 mm
12:42 AM 26.8°F-2.9°C 15.9°F-8.9°C 63% Calm Calm -- 29.14 in986.8 mb 0.00 in0.0 mm 0.00 in/hr0.0 mm/hr 0.00 in0.0 mm
12:40 AM 26.8°F-2.9°C 15.9°F-8.9°C 63% Calm Calm -- 29.14 in986.8 mb 0.00 in0.0 mm 0.00 in/hr0.0 mm/hr 0.00 in0.0 mm
12:38 AM 26.8°F-2.9°C 15.9°F-8.9°C 63% Calm Calm -- 29.14 in986.8 mb 0.00 in0.0 mm 0.00 in/hr0.0 mm/hr 0.00 in0.0 mm
12:36 AM 26.8°F-2.9°C 15.9°F-8.9°C 63% Calm Calm -- 29.14 in986.8 mb 0.00 in0.0 mm 0.00 in/hr0.0 mm/hr 0.00 in0.0 mm
12:34 AM 26.7°F-2.9°C 15.8°F-9.0°C 63% Calm Calm -- 29.14 in986.8 mb 0.00 in0.0 mm 0.00 in/hr0.0 mm/hr 0.00 in0.0 mm
12:32 AM 26.7°F-2.9°C 15.8°F-9.0°C 63% Calm Calm -- 29.14 in986.8 mb 0.00 in0.0 mm 0.00 in/hr0.0 mm/hr 0.00 in0.0 mm
12:30 AM 26.8°F-2.9°C 15.9°F-8.9°C 63% Calm Calm -- 29.14 in986.8 mb 0.00 in0.0 mm 0.00 in/hr0.0 mm/hr 0.00 in0.0 mm
12:28 AM 26.8°F-2.9°C 15.5°F-9.2°C 62% Calm Calm -- 29.15 in987.1 mb 0.00 in0.0 mm 0.00 in/hr0.0 mm/hr 0.00 in0.0 mm
12:26 AM 26.8°F-2.9°C 15.9°F-8.9°C 63% Calm Calm -- 29.14 in986.8 mb 0.00 in0.0 mm 0.00 in/hr0.0 mm/hr 0.00 in0.0 mm
12:24 AM 26.8°F-2.9°C 15.9°F-8.9°C 63% Calm Calm -- 29.14 in986.8 mb 0.00 in0.0 mm 0.00 in/hr0.0 mm/hr 0.00 in0.0 mm
12:22 AM 26.7°F-2.9°C 15.8°F-9.0°C 63% Calm Calm -- 29.14 in986.8 mb 0.00 in0.0 mm 0.00 in/hr0.0 mm/hr 0.00 in0.0 mm
12:20 AM 26.8°F-2.9°C 15.9°F-8.9°C 63% Calm Calm -- 29.15 in987.1 mb 0.00 in0.0 mm 0.00 in/hr0.0 mm/hr 0.00 in0.0 mm
12:18 AM 26.8°F-2.9°C 15.5°F-9.2°C 62% Calm Calm -- 29.15 in987.1 mb 0.00 in0.0 mm 0.00 in/hr0.0 mm/hr 0.00 in0.0 mm
12:16 AM 26.9°F-2.8°C 16.0°F-8.9°C 63% Calm Calm -- 29.15 in987.1 mb 0.00 in0.0 mm 0.00 in/hr0.0 mm/hr 0.00 in0.0 mm
12:14 AM 26.9°F-2.8°C 15.6°F-9.1°C 62% Calm Calm -- 29.15 in987.1 mb 0.00 in0.0 mm 0.00 in/hr0.0 mm/hr 0.00 in0.0 mm
12:12 AM 26.9°F-2.8°C 16.0°F-8.9°C 63% Calm Calm -- 29.15 in987.1 mb 0.00 in0.0 mm 0.00 in/hr0.0 mm/hr 0.00 in0.0 mm
12:10 AM 27.0°F-2.8°C 15.7°F-9.1°C 62% Calm Calm -- 29.15 in987.1 mb 0.00 in0.0 mm 0.00 in/hr0.0 mm/hr 0.00 in0.0 mm
12:08 AM 27.0°F-2.8°C 16.1°F-8.8°C 63% Calm Calm -- 29.15 in987.1 mb 0.00 in0.0 mm 0.00 in/hr0.0 mm/hr 0.00 in0.0 mm
12:06 AM 27.0°F-2.8°C 16.1°F-8.8°C 63% Calm Calm -- 29.15 in987.1 mb 0.00 in0.0 mm 0.00 in/hr0.0 mm/hr 0.00 in0.0 mm
12:04 AM 27.0°F-2.8°C 16.1°F-8.8°C 63% Calm Calm -- 29.15 in987.1 mb 0.00 in0.0 mm 0.00 in/hr0.0 mm/hr 0.00 in0.0 mm
12:02 AM 27.0°F-2.8°C 15.7°F-9.1°C 62% Calm Calm -- 29.15 in987.1 mb 0.00 in0.0 mm 0.00 in/hr0.0 mm/hr 0.00 in0.0 mm
12:00 AM 27.1°F-2.7°C 15.8°F-9.0°C 62% Calm Calm -- 29.15 in987.1 mb 0.00 in0.0 mm 0.00 in/hr0.0 mm/hr 0.00 in0.0 mm
WeatherForYou.com, LLC is not responsible for any damages or problems caused by this service. Current weather conditions are obtained from the closest station including government and personal stations which may have varying degrees of accuracy. Weather forecasts are derived from the NOAA NDFD and obtained through HAMweather's Aeris Weather API. Like all things, this site belongs to Jesus Christ... He just trusts me to maintain it. If you have any questions or comments email webmaster@weatherforyou.com

Copyright © 2014, WeatherForYou.com LLC. All rights reserved.